Time,TemperatureF,DewpointF,PressureIn,WindDirection,WindDirectionDegrees,WindSpeedMPH,WindSpeedGustMPH,Humidity,HourlyPrecipIn,Conditions,Clouds,dailyrainin,SoftwareType,DateUTC
2013-01-14 00:00:00,36.5,33.8,30.20,NNW,327,4.0,10.0,90,0.00,,---,0.00,VWS V14.01,2013-01-14 06:00:00,
2013-01-14 00:01:00,37.1,34.4,30.19,NNW,327,2.0,7.0,90,0.00,,---,1.64,VWS V14.01,2013-01-14 06:01:00,
2013-01-14 00:02:00,37.1,34.4,30.18,NNW,330,5.0,9.0,90,0.00,,---,0.00,VWS V14.01,2013-01-14 06:02:00,
2013-01-14 00:03:00,37.1,34.4,30.18,NNW,331,2.0,9.0,90,0.00,,---,0.00,VWS V14.01,2013-01-14 06:03:00,
2013-01-14 00:05:00,36.4,33.8,30.20,NNW,327,2.0,10.0,90,0.00,,---,0.00,VWS V14.01,2013-01-14 06:05:00,
2013-01-14 00:06:00,37.1,34.4,30.18,NNE,15,5.0,9.0,90,0.00,,---,0.00,VWS V14.01,2013-01-14 06:06:00,
2013-01-14 00:07:00,37.1,34.4,30.19,NW,325,4.0,5.0,90,0.00,,---,0.00,VWS V14.01,2013-01-14 06:07:00,
2013-01-14 00:08:00,37.1,34.4,30.19,NNW,337,7.0,7.0,90,0.00,,---,0.00,VWS V14.01,2013-01-14 06:08:00,
2013-01-14 00:10:00,36.5,33.8,30.20,NW,317,4.0,9.0,90,0.00,,---,0.00,VWS V14.01,2013-01-14 06:10:00,
2013-01-14 00:11:00,37.1,34.4,30.18,NW,324,1.0,10.0,90,0.00,,---,0.00,VWS V14.01,2013-01-14 06:11:00,
2013-01-14 00:12:00,37.1,34.4,30.18,NNE,32,4.0,6.0,90,0.00,,---,0.00,VWS V14.01,2013-01-14 06:12:00,
2013-01-14 00:13:00,37.1,34.4,30.18,NE,49,4.0,6.0,90,0.00,,---,0.00,VWS V14.01,2013-01-14 06:13:00,
2013-01-14 00:15:00,36.4,33.8,30.21,NNW,336,7.0,9.0,90,0.00,,---,0.00,VWS V14.01,2013-01-14 06:15:00,
2013-01-14 00:16:00,37.0,34.3,30.18,NNW,343,10.0,10.0,90,0.00,,---,0.00,VWS V14.01,2013-01-14 06:16:00,
2013-01-14 00:17:00,36.9,34.2,30.18,WNW,302,6.0,10.0,90,0.00,,---,0.00,VWS V14.01,2013-01-14 06:17:00,
2013-01-14 00:18:00,36.9,34.2,30.18,NW,306,2.0,10.0,90,0.00,,---,0.00,VWS V14.01,2013-01-14 06:18:00,
2013-01-14 00:20:00,36.4,33.5,30.21,NW,317,2.0,10.0,89,0.00,,---,0.00,VWS V14.01,2013-01-14 06:20:00,
2013-01-14 00:21:00,36.8,34.2,30.18,North,355,5.0,10.0,90,0.00,,---,0.00,VWS V14.01,2013-01-14 06:21:00,
2013-01-14 00:22:00,36.8,34.2,30.18,NNW,333,4.0,6.0,90,0.00,,---,0.00,VWS V14.01,2013-01-14 06:22:00,
2013-01-14 00:23:00,36.8,34.2,30.19,NW,324,3.0,6.0,90,0.00,,---,0.00,VWS V14.01,2013-01-14 06:23:00,
2013-01-14 00:24:00,36.8,34.2,30.19,NNW,334,5.0,6.0,90,0.00,,---,0.00,VWS V14.01,2013-01-14 06:24:00,
2013-01-14 00:25:00,36.3,33.4,30.21,NNW,334,3.0,10.0,89,0.00,,---,0.00,VWS V14.01,2013-01-14 06:25:00,
2013-01-14 00:26:00,36.8,34.2,30.19,NW,323,3.0,9.0,90,0.00,,---,0.00,VWS V14.01,2013-01-14 06:26:00,
2013-01-14 00:27:00,36.8,34.2,30.19,NNE,16,2.0,3.0,90,0.00,,---,0.00,VWS V14.01,2013-01-14 06:27:00,
2013-01-14 00:28:00,36.8,34.2,30.19,NW,314,2.0,3.0,90,0.00,,---,0.00,VWS V14.01,2013-01-14 06:28:00,
2013-01-14 00:29:00,36.8,34.2,30.19,NW,326,3.0,3.0,90,0.00,,---,0.00,VWS V14.01,2013-01-14 06:29:00,
2013-01-14 00:30:00,36.3,33.7,30.20,West,263,4.0,7.0,90,0.00,,---,0.00,VWS V14.01,2013-01-14 06:30:00,
2013-01-14 00:31:00,36.8,34.4,30.19,NW,313,4.0,6.0,91,0.00,,---,0.00,VWS V14.01,2013-01-14 06:31:00,
2013-01-14 00:33:00,36.8,34.4,30.19,NNW,327,4.0,4.0,91,0.00,,---,0.00,VWS V14.01,2013-01-14 06:33:00,
2013-01-14 00:34:00,36.8,34.4,30.19,NW,314,8.0,9.0,91,0.00,,---,0.00,VWS V14.01,2013-01-14 06:34:00,
2013-01-14 00:35:00,36.3,33.4,30.21,NNE,20,2.0,11.0,89,0.00,,---,0.00,VWS V14.01,2013-01-14 06:35:00,
2013-01-14 00:36:00,36.7,34.0,30.19,NNW,346,3.0,9.0,90,0.00,,---,0.00,VWS V14.01,2013-01-14 06:36:00,
2013-01-14 00:38:00,36.7,34.3,30.18,NNW,334,6.0,8.0,91,0.00,,---,0.00,VWS V14.01,2013-01-14 06:38:00,
2013-01-14 00:39:00,36.7,34.3,30.19,NW,319,1.0,8.0,91,0.00,,---,0.00,VWS V14.01,2013-01-14 06:39:00,
2013-01-14 00:40:00,36.2,33.3,30.20,NNW,344,9.0,14.0,89,0.00,,---,0.00,VWS V14.01,2013-01-14 06:40:00,
2013-01-14 00:41:00,36.7,34.0,30.19,NW,324,1.0,8.0,90,0.00,,---,0.00,VWS V14.01,2013-01-14 06:41:00,
2013-01-14 00:43:00,36.7,34.3,30.19,NNW,341,1.0,3.0,91,0.00,,---,0.00,VWS V14.01,2013-01-14 06:43:00,
2013-01-14 00:44:00,36.7,34.0,30.19,NNW,346,3.0,6.0,90,0.00,,---,0.00,VWS V14.01,2013-01-14 06:44:00,
2013-01-14 00:45:00,36.1,33.2,30.21,NNW,337,2.0,11.0,89,0.00,,---,0.00,VWS V14.01,2013-01-14 06:45:00,
2013-01-14 00:46:00,36.7,34.0,30.19,NW,321,3.0,9.0,90,0.00,,---,0.00,VWS V14.01,2013-01-14 06:46:00,
2013-01-14 00:48:00,36.7,34.0,30.20,NNW,329,5.0,10.0,90,0.00,,---,0.00,VWS V14.01,2013-01-14 06:48:00,
2013-01-14 00:49:00,36.6,34.0,30.20,NW,310,3.0,10.0,90,0.00,,---,0.00,VWS V14.01,2013-01-14 06:49:00,
2013-01-14 00:50:00,36.1,33.2,30.22,NW,319,5.0,10.0,89,0.00,,---,0.00,VWS V14.01,2013-01-14 06:50:00,
2013-01-14 00:51:00,36.6,34.0,30.20,NW,319,5.0,10.0,90,0.00,,---,0.00,VWS V14.01,2013-01-14 06:51:00,
2013-01-14 00:53:00,36.5,33.6,30.20,North,360,7.0,12.0,89,0.00,,---,0.00,VWS V14.01,2013-01-14 06:53:00,
2013-01-14 00:54:00,36.5,33.6,30.20,NNW,328,3.0,12.0,89,0.00,,---,0.00,VWS V14.01,2013-01-14 06:54:00,
2013-01-14 00:55:00,36.0,33.1,30.21,NW,306,1.0,10.0,89,0.00,,---,0.00,VWS V14.01,2013-01-14 06:55:00,
2013-01-14 00:56:00,36.5,33.8,30.20,NW,311,7.0,12.0,90,0.00,,---,0.00,VWS V14.01,2013-01-14 06:56:00,
2013-01-14 00:58:00,36.5,33.6,30.20,NNW,348,7.0,10.0,89,0.00,,---,0.00,VWS V14.01,2013-01-14 06:58:00,
2013-01-14 00:59:00,36.5,33.6,30.20,NNW,331,3.0,10.0,89,0.00,,---,0.00,VWS V14.01,2013-01-14 06:59:00,
2013-01-14 01:00:00,36.0,33.1,30.21,NW,317,5.0,11.0,89,0.00,,---,0.00,VWS V14.01,2013-01-14 07:00:00,
2013-01-14 01:01:00,36.5,33.8,30.20,NNW,327,4.0,10.0,90,0.00,,---,0.00,VWS V14.01,2013-01-14 07:01:00,
2013-01-14 01:03:00,36.4,33.5,30.20,NNW,338,5.0,10.0,89,0.00,,---,0.00,VWS V14.01,2013-01-14 07:03:00,
2013-01-14 01:04:00,36.4,33.5,30.20,NNW,331,3.0,10.0,89,0.00,,---,0.00,VWS V14.01,2013-01-14 07:04:00,
2013-01-14 01:05:00,35.9,33.3,30.21,NW,304,4.0,11.0,90,0.00,,---,0.00,VWS V14.01,2013-01-14 07:05:00,
2013-01-14 01:06:00,36.4,33.8,30.20,NNW,327,2.0,10.0,90,0.00,,---,0.00,VWS V14.01,2013-01-14 07:06:00,
2013-01-14 01:08:00,36.5,33.8,30.20,NE,44,1.0,5.0,90,0.00,,---,0.00,VWS V14.01,2013-01-14 07:08:00,
2013-01-14 01:09:00,36.5,33.8,30.20,NW,306,2.0,5.0,90,0.00,,---,0.00,VWS V14.01,2013-01-14 07:09:00,
2013-01-14 01:10:00,36.5,33.8,30.20,NW,311,2.0,5.0,90,0.00,,---,0.00,VWS V14.01,2013-01-14 07:10:00,
2013-01-14 01:11:00,36.5,33.8,30.20,NW,315,2.0,4.0,90,0.00,,---,0.00,VWS V14.01,2013-01-14 07:11:00,
2013-01-14 01:14:00,36.4,33.8,30.21,NW,323,6.0,6.0,90,0.00,,---,0.00,VWS V14.01,2013-01-14 07:14:00,
2013-01-14 01:15:00,36.4,33.5,30.21,NNW,338,2.0,9.0,89,0.00,,---,0.00,VWS V14.01,2013-01-14 07:15:00,
2013-01-14 01:16:00,36.4,33.8,30.21,NW,314,6.0,8.0,90,0.00,,---,0.00,VWS V14.01,2013-01-14 07:16:00,
2013-01-14 01:19:00,36.4,33.5,30.21,NNW,331,5.0,10.0,89,0.00,,---,0.00,VWS V14.01,2013-01-14 07:19:00,
2013-01-14 01:20:00,36.4,33.5,30.21,NNW,336,4.0,10.0,89,0.00,,---,0.00,VWS V14.01,2013-01-14 07:20:00,
2013-01-14 01:22:00,36.4,33.5,30.21,NNW,341,1.0,2.0,89,0.00,,---,0.00,VWS V14.01,2013-01-14 07:22:00,
2013-01-14 01:24:00,36.3,33.4,30.20,NNW,334,5.0,10.0,89,0.00,,---,0.00,VWS V14.01,2013-01-14 07:24:00,
2013-01-14 01:25:00,36.3,33.4,30.21,NW,311,2.0,10.0,89,0.00,,---,0.00,VWS V14.01,2013-01-14 07:25:00,
2013-01-14 01:27:00,36.3,33.4,30.20,NNE,12,1.0,3.0,89,0.00,,---,0.00,VWS V14.01,2013-01-14 07:27:00,
2013-01-14 01:29:00,36.3,33.7,30.20,WNW,288,1.0,4.0,90,0.00,,---,0.00,VWS V14.01,2013-01-14 07:29:00,
2013-01-14 01:30:00,36.3,33.7,30.20,NW,321,4.0,4.0,90,0.00,,---,0.00,VWS V14.01,2013-01-14 07:30:00,
2013-01-14 01:32:00,36.3,33.4,30.20,NNW,338,7.0,11.0,89,0.00,,---,0.00,VWS V14.01,2013-01-14 07:32:00,
2013-01-14 01:34:00,36.3,33.4,30.21,NNW,344,5.0,11.0,89,0.00,,---,0.00,VWS V14.01,2013-01-14 07:34:00,
2013-01-14 01:35:00,36.3,33.4,30.21,NNW,336,7.0,11.0,89,0.00,,---,0.00,VWS V14.01,2013-01-14 07:35:00,
2013-01-14 01:37:00,36.3,33.4,30.21,NE,36,7.0,7.0,89,0.00,,---,0.00,VWS V14.01,2013-01-14 07:37:00,
2013-01-14 01:39:00,36.3,33.4,30.20,NNW,338,4.0,12.0,89,0.00,,---,0.00,VWS V14.01,2013-01-14 07:39:00,
2013-01-14 01:40:00,36.3,33.4,30.20,WNW,301,4.0,12.0,89,0.00,,---,0.00,VWS V14.01,2013-01-14 07:40:00,
2013-01-14 01:42:00,36.2,33.0,30.21,NW,314,6.0,9.0,88,0.00,,---,0.00,VWS V14.01,2013-01-14 07:42:00,
2013-01-14 01:44:00,36.2,33.3,30.21,WNW,300,7.0,11.0,89,0.00,,---,0.00,VWS V14.01,2013-01-14 07:44:00,
2013-01-14 01:45:00,36.1,33.2,30.21,NW,326,6.0,11.0,89,0.00,,---,0.00,VWS V14.01,2013-01-14 07:45:00,
2013-01-14 01:47:00,36.1,33.2,30.21,NNW,334,2.0,4.0,89,0.00,,---,0.00,VWS V14.01,2013-01-14 07:47:00,
2013-01-14 01:50:00,36.1,33.2,30.21,NW,313,5.0,10.0,89,0.00,,---,0.00,VWS V14.01,2013-01-14 07:50:00,
2013-01-14 01:53:00,36.1,33.2,30.22,NNW,333,5.0,10.0,89,0.00,,---,0.00,VWS V14.01,2013-01-14 07:53:00,
2013-01-14 01:55:00,36.1,33.2,30.21,NW,319,4.0,10.0,89,0.00,,---,0.00,VWS V14.01,2013-01-14 07:55:00,
2013-01-14 01:56:00,36.1,33.2,30.21,NW,326,2.0,10.0,89,0.00,,---,0.00,VWS V14.01,2013-01-14 07:56:00,
2013-01-14 01:58:00,36.1,33.5,30.21,NNE,20,11.0,11.0,90,0.00,,---,0.00,VWS V14.01,2013-01-14 07:58:00,
2013-01-14 02:00:00,36.0,33.1,30.21,NNW,335,8.0,11.0,89,0.00,,---,0.00,VWS V14.01,2013-01-14 08:00:00,
2013-01-14 02:01:00,36.0,33.1,30.21,NNW,329,6.0,11.0,89,0.00,,---,0.00,VWS V14.01,2013-01-14 08:01:00,
2013-01-14 02:03:00,36.0,33.1,30.22,WNW,288,5.0,9.0,89,0.00,,---,0.00,VWS V14.01,2013-01-14 08:03:00,
2013-01-14 02:05:00,34.6,31.7,30.22,NW,322,1.0,11.0,89,0.00,,---,0.00,VWS V14.01,2013-01-14 08:05:00,
2013-01-14 02:06:00,35.9,33.3,30.21,NNW,329,1.0,11.0,90,0.00,,---,0.00,VWS V14.01,2013-01-14 08:06:00,
2013-01-14 02:08:00,35.9,33.3,30.21,NNW,334,5.0,6.0,90,0.00,,---,0.00,VWS V14.01,2013-01-14 08:08:00,
2013-01-14 02:10:00,34.4,31.8,30.22,NNW,338,5.0,15.0,90,0.00,,---,0.00,VWS V14.01,2013-01-14 08:10:00,
2013-01-14 02:11:00,35.9,33.3,30.22,NW,325,8.0,11.0,90,0.00,,---,0.00,VWS V14.01,2013-01-14 08:11:00,
2013-01-14 02:13:00,35.8,33.2,30.22,NW,326,10.0,10.0,90,0.00,,---,0.00,VWS V14.01,2013-01-14 08:13:00,
2013-01-14 02:15:00,34.3,31.4,30.22,NW,307,4.0,10.0,89,0.00,,---,0.00,VWS V14.01,2013-01-14 08:15:00,
2013-01-14 02:16:00,35.7,33.1,30.22,NW,321,3.0,11.0,90,0.00,,---,0.00,VWS V14.01,2013-01-14 08:16:00,
2013-01-14 02:18:00,35.7,33.1,30.22,NNW,348,8.0,9.0,90,0.00,,---,0.00,VWS V14.01,2013-01-14 08:18:00,
2013-01-14 02:20:00,34.0,31.1,30.22,NNW,346,6.0,11.0,89,0.00,,---,0.00,VWS V14.01,2013-01-14 08:20:00,
2013-01-14 02:21:00,35.6,32.7,30.22,NNW,333,7.0,10.0,89,0.00,,---,0.00,VWS V14.01,2013-01-14 08:21:00,
2013-01-14 02:23:00,35.5,32.6,30.22,NW,313,11.0,12.0,89,0.00,,---,0.00,VWS V14.01,2013-01-14 08:23:00,
2013-01-14 02:25:00,33.7,30.8,30.21,NW,304,6.0,14.0,89,0.00,,---,0.00,VWS V14.01,2013-01-14 08:25:00,
2013-01-14 02:26:00,35.4,32.5,30.22,NW,314,5.0,14.0,89,0.00,,---,0.00,VWS V14.01,2013-01-14 08:26:00,
2013-01-14 02:28:00,35.3,32.4,30.22,NNW,335,5.0,10.0,89,0.00,,---,0.00,VWS V14.01,2013-01-14 08:28:00,
2013-01-14 02:30:00,33.4,30.2,30.21,NW,311,4.0,16.0,88,0.00,,---,0.00,VWS V14.01,2013-01-14 08:30:00,
2013-01-14 02:31:00,35.2,32.3,30.23,NW,318,2.0,10.0,89,0.00,,---,0.00,VWS V14.01,2013-01-14 08:31:00,
2013-01-14 02:33:00,35.2,32.3,30.23,NW,325,5.0,9.0,89,0.00,,---,0.00,VWS V14.01,2013-01-14 08:33:00,
2013-01-14 02:35:00,33.2,30.3,30.21,NW,323,5.0,14.0,89,0.00,,---,0.00,VWS V14.01,2013-01-14 08:35:00,
2013-01-14 02:36:00,35.1,32.2,30.23,North,11,4.0,11.0,89,0.00,,---,0.00,VWS V14.01,2013-01-14 08:36:00,
2013-01-14 02:37:00,35.1,32.2,30.23,NNW,327,5.0,10.0,89,0.00,,---,0.00,VWS V14.01,2013-01-14 08:37:00,
2013-01-14 02:38:00,35.1,32.2,30.23,NW,325,5.0,10.0,89,0.00,,---,0.00,VWS V14.01,2013-01-14 08:38:00,
2013-01-14 02:40:00,33.1,30.2,30.22,NNW,327,9.0,15.0,89,0.00,,---,0.00,VWS V14.01,2013-01-14 08:40:00,
2013-01-14 02:41:00,35.0,32.1,30.23,NNE,22,5.0,10.0,89,0.00,,---,0.00,VWS V14.01,2013-01-14 08:41:00,
2013-01-14 02:42:00,35.0,32.1,30.23,NNE,12,4.0,7.0,89,0.00,,---,0.00,VWS V14.01,2013-01-14 08:42:00,
2013-01-14 02:43:00,34.9,32.0,30.23,NW,306,4.0,11.0,89,0.00,,---,0.00,VWS V14.01,2013-01-14 08:43:00,
2013-01-14 02:45:00,32.9,30.0,30.23,NNW,342,6.0,14.0,89,0.00,,---,0.00,VWS V14.01,2013-01-14 08:45:00,
2013-01-14 02:46:00,34.9,32.0,30.23,NNW,331,4.0,11.0,89,0.00,,---,0.00,VWS V14.01,2013-01-14 08:46:00,
2013-01-14 02:47:00,34.9,32.0,30.23,NNE,27,4.0,7.0,89,0.00,,---,0.00,VWS V14.01,2013-01-14 08:47:00,
2013-01-14 02:48:00,34.9,32.0,30.23,West,269,3.0,10.0,89,0.00,,---,0.00,VWS V14.01,2013-01-14 08:48:00,
2013-01-14 02:50:00,32.8,29.9,30.23,NW,326,4.0,10.0,89,0.00,,---,0.00,VWS V14.01,2013-01-14 08:50:00,
2013-01-14 02:51:00,34.8,31.9,30.23,NW,310,6.0,9.0,89,0.00,,---,0.00,VWS V14.01,2013-01-14 08:51:00,
2013-01-14 02:52:00,34.8,31.6,30.23,NE,54,2.0,9.0,88,0.00,,---,0.00,VWS V14.01,2013-01-14 08:52:00,
2013-01-14 02:54:00,34.8,31.9,30.23,NW,304,6.0,9.0,89,0.00,,---,0.00,VWS V14.01,2013-01-14 08:54:00,
2013-01-14 02:55:00,32.7,29.8,30.24,NW,319,2.0,11.0,89,0.00,,---,0.00,VWS V14.01,2013-01-14 08:55:00,
2013-01-14 02:56:00,34.7,31.8,30.22,NE,42,4.0,8.0,89,0.00,,---,0.00,VWS V14.01,2013-01-14 08:56:00,
2013-01-14 02:57:00,34.7,31.8,30.22,NNW,342,6.0,8.0,89,0.00,,---,0.00,VWS V14.01,2013-01-14 08:57:00,
2013-01-14 02:59:00,34.7,31.8,30.22,NNW,336,9.0,12.0,89,0.00,,---,0.00,VWS V14.01,2013-01-14 08:59:00,
2013-01-14 03:00:00,32.6,29.7,30.24,NNW,338,7.0,11.0,89,0.00,,---,0.00,VWS V14.01,2013-01-14 09:00:00,
2013-01-14 03:01:00,34.7,31.8,30.22,NW,325,9.0,9.0,89,0.00,,---,0.00,VWS V14.01,2013-01-14 09:01:00,
2013-01-14 03:02:00,34.6,31.7,30.22,NW,313,4.0,11.0,89,0.00,,---,0.00,VWS V14.01,2013-01-14 09:02:00,
2013-01-14 03:04:00,34.6,31.7,30.22,NW,314,6.0,11.0,89,0.00,,---,0.00,VWS V14.01,2013-01-14 09:04:00,
2013-01-14 03:05:00,32.5,29.6,30.24,NNW,328,6.0,10.0,89,0.00,,---,0.00,VWS V14.01,2013-01-14 09:05:00,
2013-01-14 03:07:00,34.6,31.7,30.22,NW,315,6.0,6.0,89,0.00,,---,0.00,VWS V14.01,2013-01-14 09:07:00,
2013-01-14 03:09:00,34.5,31.6,30.22,NW,310,7.0,15.0,89,0.00,,---,0.00,VWS V14.01,2013-01-14 09:09:00,
2013-01-14 03:10:00,32.4,29.5,30.24,NNW,328,6.0,10.0,89,0.00,,---,0.00,VWS V14.01,2013-01-14 09:10:00,
2013-01-14 03:12:00,34.4,31.8,30.22,NW,318,0.0,6.0,90,0.00,,---,0.00,VWS V14.01,2013-01-14 09:12:00,
2013-01-14 03:13:00,34.4,31.8,30.22,NNW,344,6.0,10.0,90,0.00,,---,0.00,VWS V14.01,2013-01-14 09:13:00,
2013-01-14 03:14:00,34.4,31.5,30.22,WNW,300,7.0,10.0,89,0.00,,---,0.00,VWS V14.01,2013-01-14 09:14:00,
2013-01-14 03:15:00,32.3,29.1,30.24,NW,322,5.0,13.0,88,0.00,,---,0.00,VWS V14.01,2013-01-14 09:15:00,
2013-01-14 03:17:00,34.2,31.3,30.22,NW,317,4.0,5.0,89,0.00,,---,0.00,VWS V14.01,2013-01-14 09:17:00,
2013-01-14 03:18:00,34.2,31.3,30.22,North,11,3.0,5.0,89,0.00,,---,0.00,VWS V14.01,2013-01-14 09:18:00,
2013-01-14 03:19:00,34.1,31.2,30.22,NW,322,10.0,10.0,89,0.00,,---,0.00,VWS V14.01,2013-01-14 09:19:00,
2013-01-14 03:20:00,32.2,29.3,30.23,NNW,327,5.0,6.0,89,0.00,,---,0.00,VWS V14.01,2013-01-14 09:20:00,
2013-01-14 03:22:00,34.0,31.1,30.22,NNW,338,11.0,13.0,89,0.00,,---,0.00,VWS V14.01,2013-01-14 09:22:00,
2013-01-14 03:23:00,34.0,31.1,30.22,NW,319,5.0,13.0,89,0.00,,---,0.00,VWS V14.01,2013-01-14 09:23:00,
2013-01-14 03:24:00,33.9,31.0,30.22,NNW,346,8.0,14.0,89,0.00,,---,0.00,VWS V14.01,2013-01-14 09:24:00,
2013-01-14 03:25:00,32.2,29.3,30.23,NW,311,5.0,7.0,89,0.00,,---,0.00,VWS V14.01,2013-01-14 09:25:00,
2013-01-14 03:27:00,33.7,30.8,30.21,NNE,19,12.0,13.0,89,0.00,,---,0.00,VWS V14.01,2013-01-14 09:27:00,
2013-01-14 03:28:00,33.6,30.4,30.21,NNW,327,3.0,16.0,88,0.00,,---,0.00,VWS V14.01,2013-01-14 09:28:00,
2013-01-14 03:29:00,33.5,30.3,30.21,West,266,6.0,16.0,88,0.00,,---,0.00,VWS V14.01,2013-01-14 09:29:00,
2013-01-14 03:30:00,32.2,29.3,30.23,NW,321,4.0,10.0,89,0.00,,---,0.00,VWS V14.01,2013-01-14 09:30:00,
2013-01-14 03:32:00,33.4,30.5,30.21,NW,321,7.0,13.0,89,0.00,,---,0.00,VWS V14.01,2013-01-14 09:32:00,
2013-01-14 03:33:00,33.3,30.1,30.21,NNW,338,14.0,14.0,88,0.00,,---,0.00,VWS V14.01,2013-01-14 09:33:00,
2013-01-14 03:34:00,33.3,30.1,30.21,NNW,338,4.0,14.0,88,0.00,,---,0.00,VWS V14.01,2013-01-14 09:34:00,
2013-01-14 03:35:00,32.1,29.2,30.23,NNW,338,3.0,10.0,89,0.00,,---,0.00,VWS V14.01,2013-01-14 09:35:00,
2013-01-14 03:37:00,33.2,30.3,30.22,NW,321,5.0,9.0,89,0.00,,---,0.00,VWS V14.01,2013-01-14 09:37:00,
2013-01-14 03:38:00,33.2,30.3,30.22,NNE,30,13.0,13.0,89,0.00,,---,0.00,VWS V14.01,2013-01-14 09:38:00,
2013-01-14 03:39:00,33.1,30.2,30.22,NNW,330,9.0,15.0,89,0.00,,---,0.00,VWS V14.01,2013-01-14 09:39:00,
2013-01-14 03:40:00,32.1,29.2,30.23,NNW,337,7.0,11.0,89,0.00,,---,0.00,VWS V14.01,2013-01-14 09:40:00,
2013-01-14 03:42:00,33.0,29.8,30.22,NNW,331,4.0,12.0,88,0.00,,---,0.00,VWS V14.01,2013-01-14 09:42:00,
2013-01-14 03:43:00,33.0,30.1,30.22,NW,306,5.0,12.0,89,0.00,,---,0.00,VWS V14.01,2013-01-14 09:43:00,
2013-01-14 03:44:00,33.0,30.1,30.22,WNW,290,6.0,12.0,89,0.00,,---,0.00,VWS V14.01,2013-01-14 09:44:00,
2013-01-14 03:45:00,32.0,29.1,30.23,West,268,5.0,9.0,89,0.00,,---,0.00,VWS V14.01,2013-01-14 09:45:00,
2013-01-14 03:48:00,32.8,29.9,30.23,NNW,329,4.0,8.0,89,0.00,,---,0.00,VWS V14.01,2013-01-14 09:48:00,
2013-01-14 03:49:00,32.8,29.9,30.23,NNW,334,4.0,8.0,89,0.00,,---,0.00,VWS V14.01,2013-01-14 09:49:00,
2013-01-14 03:50:00,32.0,29.4,30.23,NW,325,0.0,6.0,90,0.00,,---,0.00,VWS V14.01,2013-01-14 09:50:00,
2013-01-14 03:53:00,32.7,29.8,30.23,NW,325,7.0,11.0,89,0.00,,---,0.00,VWS V14.01,2013-01-14 09:53:00,
2013-01-14 03:54:00,32.7,29.8,30.23,NW,310,7.0,11.0,89,0.00,,---,0.00,VWS V14.01,2013-01-14 09:54:00,
2013-01-14 03:55:00,32.0,29.4,30.23,NW,310,7.0,10.0,90,0.00,,---,0.00,VWS V14.01,2013-01-14 09:55:00,
2013-01-14 03:58:00,32.6,29.7,30.24,NW,315,2.0,10.0,89,0.00,,---,0.00,VWS V14.01,2013-01-14 09:58:00,
2013-01-14 03:59:00,32.6,29.7,30.24,NNW,329,2.0,10.0,89,0.00,,---,0.00,VWS V14.01,2013-01-14 09:59:00,
2013-01-14 04:00:00,31.8,29.2,30.24,NW,326,4.0,10.0,90,0.00,,---,0.00,VWS V14.01,2013-01-14 10:00:00,
2013-01-14 04:03:00,32.5,29.6,30.24,NW,317,3.0,10.0,89,0.00,,---,0.00,VWS V14.01,2013-01-14 10:03:00,
2013-01-14 04:04:00,32.5,29.6,30.24,NW,314,1.0,10.0,89,0.00,,---,0.00,VWS V14.01,2013-01-14 10:04:00,
2013-01-14 04:05:00,32.5,29.6,30.24,NW,318,6.0,10.0,89,0.00,,---,0.00,VWS V14.01,2013-01-14 10:05:00,
2013-01-14 04:08:00,32.5,29.6,30.24,NW,323,4.0,9.0,89,0.00,,---,0.00,VWS V14.01,2013-01-14 10:08:00,
2013-01-14 04:09:00,32.5,29.6,30.24,NW,307,4.0,9.0,89,0.00,,---,0.00,VWS V14.01,2013-01-14 10:09:00,
2013-01-14 04:10:00,32.4,29.5,30.24,NW,317,3.0,9.0,89,0.00,,---,0.00,VWS V14.01,2013-01-14 10:10:00,
2013-01-14 04:13:00,32.4,29.5,30.24,NW,321,8.0,13.0,89,0.00,,---,0.00,VWS V14.01,2013-01-14 10:13:00,
2013-01-14 04:14:00,32.3,29.1,30.24,NW,325,6.0,13.0,88,0.00,,---,0.00,VWS V14.01,2013-01-14 10:14:00,
2013-01-14 04:15:00,32.3,29.1,30.24,NNW,346,7.0,13.0,88,0.00,,---,0.00,VWS V14.01,2013-01-14 10:15:00,
2013-01-14 04:18:00,32.2,29.3,30.24,NW,324,3.0,6.0,89,0.00,,---,0.00,VWS V14.01,2013-01-14 10:18:00,
2013-01-14 04:19:00,32.2,29.3,30.24,NW,323,6.0,6.0,89,0.00,,---,0.00,VWS V14.01,2013-01-14 10:19:00,
2013-01-14 04:20:00,32.2,29.3,30.23,NNW,344,3.0,6.0,89,0.00,,---,0.00,VWS V14.01,2013-01-14 10:20:00,
2013-01-14 04:23:00,32.2,29.3,30.23,NNW,340,4.0,6.0,89,0.00,,---,0.00,VWS V14.01,2013-01-14 10:23:00,
2013-01-14 04:24:00,32.2,29.3,30.23,NNW,336,5.0,6.0,89,0.00,,---,0.00,VWS V14.01,2013-01-14 10:24:00,
2013-01-14 04:25:00,32.2,29.3,30.23,NW,325,3.0,7.0,89,0.00,,---,0.00,VWS V14.01,2013-01-14 10:25:00,
2013-01-14 04:28:00,32.2,29.3,30.23,WNW,297,7.0,8.0,89,0.00,,---,0.00,VWS V14.01,2013-01-14 10:28:00,
2013-01-14 04:29:00,32.2,29.3,30.23,NNW,331,7.0,10.0,89,0.00,,---,0.00,VWS V14.01,2013-01-14 10:29:00,
2013-01-14 04:30:00,32.2,29.3,30.23,NW,322,6.0,10.0,89,0.00,,---,0.00,VWS V14.01,2013-01-14 10:30:00,
2013-01-14 04:34:00,32.1,29.2,30.23,NNW,331,3.0,10.0,89,0.00,,---,0.00,VWS V14.01,2013-01-14 10:34:00,
2013-01-14 04:35:00,32.1,29.2,30.23,NW,311,3.0,10.0,89,0.00,,---,0.00,VWS V14.01,2013-01-14 10:35:00,
2013-01-14 04:39:00,32.1,29.2,30.23,NNW,330,6.0,6.0,89,0.00,,---,0.00,VWS V14.01,2013-01-14 10:39:00,
2013-01-14 04:40:00,32.1,29.5,30.23,NW,319,10.0,10.0,90,0.00,,---,0.00,VWS V14.01,2013-01-14 10:40:00,
2013-01-14 04:44:00,32.0,29.1,30.22,WNW,296,7.0,9.0,89,0.00,,---,0.00,VWS V14.01,2013-01-14 10:44:00,
2013-01-14 04:45:00,32.0,29.1,30.23,NNW,331,6.0,9.0,89,0.00,,---,0.00,VWS V14.01,2013-01-14 10:45:00,
2013-01-14 04:46:00,32.0,29.1,30.23,NW,315,2.0,9.0,89,0.00,,---,0.00,VWS V14.01,2013-01-14 10:46:00,
2013-01-14 04:49:00,32.0,29.4,30.23,NW,323,1.0,6.0,90,0.00,,---,0.00,VWS V14.01,2013-01-14 10:49:00,
2013-01-14 04:50:00,32.0,29.4,30.23,NNE,25,3.0,6.0,90,0.00,,---,0.00,VWS V14.01,2013-01-14 10:50:00,
2013-01-14 04:51:00,32.0,29.4,30.23,North,351,2.0,6.0,90,0.00,,---,0.00,VWS V14.01,2013-01-14 10:51:00,
2013-01-14 04:54:00,32.0,29.4,30.23,NE,36,9.0,9.0,90,0.00,,---,0.00,VWS V14.01,2013-01-14 10:54:00,
2013-01-14 04:55:00,32.0,29.4,30.23,North,360,5.0,9.0,90,0.00,,---,0.00,VWS V14.01,2013-01-14 10:55:00,
2013-01-14 04:56:00,32.0,29.4,30.23,NW,319,3.0,9.0,90,0.00,,---,0.00,VWS V14.01,2013-01-14 10:56:00,
2013-01-14 04:59:00,31.9,29.3,30.24,NW,311,3.0,10.0,90,0.00,,---,0.00,VWS V14.01,2013-01-14 10:59:00,
2013-01-14 05:00:00,31.9,29.3,30.24,NNE,12,3.0,10.0,90,0.00,,---,0.00,VWS V14.01,2013-01-14 11:00:00,
2013-01-14 05:01:00,31.8,29.2,30.24,NNW,340,3.0,4.0,90,0.00,,---,0.00,VWS V14.01,2013-01-14 11:01:00,
2013-01-14 05:04:00,31.8,29.2,30.24,NNE,17,10.0,10.0,90,0.00,,---,0.00,VWS V14.01,2013-01-14 11:04:00,
2013-01-14 05:05:00,31.8,29.2,30.24,North,350,7.0,10.0,90,0.00,,---,0.00,VWS V14.01,2013-01-14 11:05:00,
2013-01-14 05:06:00,31.7,29.1,30.24,North,350,9.0,14.0,90,0.00,,---,0.00,VWS V14.01,2013-01-14 11:06:00,
2013-01-14 05:09:00,31.6,29.0,30.24,NNW,338,11.0,15.0,90,0.00,,---,0.00,VWS V14.01,2013-01-14 11:09:00,
2013-01-14 05:10:00,31.6,29.0,30.24,NW,313,8.0,15.0,90,0.00,,---,0.00,VWS V14.01,2013-01-14 11:10:00,
2013-01-14 05:11:00,31.5,28.9,30.24,NW,306,10.0,10.0,90,0.00,,---,0.00,VWS V14.01,2013-01-14 11:11:00,
2013-01-14 05:14:00,31.4,28.8,30.24,NW,323,8.0,15.0,90,0.00,,---,0.00,VWS V14.01,2013-01-14 11:14:00,
2013-01-14 05:15:00,31.3,28.7,30.25,NNW,327,10.0,15.0,90,0.00,,---,0.00,VWS V14.01,2013-01-14 11:15:00,
2013-01-14 05:16:00,31.3,28.7,30.25,NNW,345,14.0,14.0,90,0.00,,---,0.00,VWS V14.01,2013-01-14 11:16:00,
2013-01-14 05:19:00,31.2,28.6,30.24,NNW,346,7.0,14.0,90,0.00,,---,0.00,VWS V14.01,2013-01-14 11:19:00,
2013-01-14 05:20:00,31.2,28.6,30.24,North,360,2.0,14.0,90,0.00,,---,0.00,VWS V14.01,2013-01-14 11:20:00,
2013-01-14 05:21:00,31.2,28.6,30.24,NNW,327,9.0,14.0,90,0.00,,---,0.00,VWS V14.01,2013-01-14 11:21:00,
2013-01-14 05:24:00,31.0,28.4,30.25,NNW,340,8.0,14.0,90,0.00,,---,0.00,VWS V14.01,2013-01-14 11:24:00,
2013-01-14 05:25:00,31.0,28.4,30.26,NW,313,8.0,14.0,90,0.00,,---,0.00,VWS V14.01,2013-01-14 11:25:00,
2013-01-14 05:26:00,31.0,28.4,30.26,NW,311,4.0,14.0,90,0.00,,---,0.00,VWS V14.01,2013-01-14 11:26:00,
2013-01-14 05:29:00,30.9,28.3,30.25,NW,313,7.0,13.0,90,0.00,,---,0.00,VWS V14.01,2013-01-14 11:29:00,
2013-01-14 05:30:00,30.9,28.3,30.25,NW,313,3.0,13.0,90,0.00,,---,0.00,VWS V14.01,2013-01-14 11:30:00,
2013-01-14 05:31:00,30.9,28.3,30.25,NW,323,9.0,13.0,90,0.00,,---,0.00,VWS V14.01,2013-01-14 11:31:00,
2013-01-14 05:32:00,30.9,28.3,30.25,NNW,341,4.0,9.0,90,0.00,,---,0.00,VWS V14.01,2013-01-14 11:32:00,
2013-01-14 05:34:00,30.8,28.2,30.25,NW,309,5.0,12.0,90,0.00,,---,0.00,VWS V14.01,2013-01-14 11:34:00,
2013-01-14 05:35:00,30.3,27.5,30.28,NW,314,3.0,15.0,89,0.00,,---,0.00,VWS V14.01,2013-01-14 11:35:00,
2013-01-14 05:36:00,30.8,28.2,30.25,WNW,296,4.0,12.0,90,0.00,,---,0.00,VWS V14.01,2013-01-14 11:36:00,
2013-01-14 05:37:00,30.8,28.2,30.25,NNW,336,5.0,7.0,90,0.00,,---,0.00,VWS V14.01,2013-01-14 11:37:00,
2013-01-14 05:40:00,30.8,28.2,30.25,NW,318,6.0,9.0,90,0.00,,---,0.00,VWS V14.01,2013-01-14 11:40:00,
2013-01-14 05:41:00,30.8,28.2,30.25,WNW,303,5.0,9.0,90,0.00,,---,0.00,VWS V14.01,2013-01-14 11:41:00,
2013-01-14 05:42:00,30.8,28.2,30.25,NW,313,3.0,9.0,90,0.00,,---,0.00,VWS V14.01,2013-01-14 11:42:00,
2013-01-14 05:45:00,30.7,28.1,30.25,WNW,293,4.0,9.0,90,0.00,,---,0.00,VWS V14.01,2013-01-14 11:45:00,
2013-01-14 05:46:00,30.7,28.1,30.25,NNW,328,3.0,9.0,90,0.00,,---,0.00,VWS V14.01,2013-01-14 11:46:00,
2013-01-14 05:47:00,30.7,28.1,30.25,NNW,328,3.0,3.0,90,0.00,,---,0.00,VWS V14.01,2013-01-14 11:47:00,
2013-01-14 05:50:00,30.7,28.1,30.26,NNW,328,3.0,3.0,90,0.00,,---,0.00,VWS V14.01,2013-01-14 11:50:00,
2013-01-14 05:51:00,30.7,28.1,30.26,NNW,328,3.0,3.0,90,0.00,,---,0.00,VWS V14.01,2013-01-14 11:51:00,
2013-01-14 05:52:00,30.6,27.8,30.27,NNE,29,7.0,7.0,89,0.00,,---,0.00,VWS V14.01,2013-01-14 11:52:00,
2013-01-14 05:55:00,30.5,27.6,30.27,NNW,331,6.0,10.0,89,0.00,,---,0.00,VWS V14.01,2013-01-14 11:55:00,
2013-01-14 05:56:00,30.5,27.6,30.27,NW,313,3.0,11.0,89,0.00,,---,0.00,VWS V14.01,2013-01-14 11:56:00,
2013-01-14 05:57:00,30.5,27.4,30.27,North,11,10.0,12.0,88,0.00,,---,0.00,VWS V14.01,2013-01-14 11:57:00,
2013-01-14 06:00:00,30.4,27.5,30.26,NNW,344,10.0,12.0,89,0.00,,---,0.00,VWS V14.01,2013-01-14 12:00:00,
2013-01-14 06:01:00,30.4,27.5,30.26,NW,317,3.0,12.0,89,0.00,,---,0.00,VWS V14.01,2013-01-14 12:01:00,
2013-01-14 06:02:00,30.4,27.5,30.26,NW,323,9.0,11.0,89,0.00,,---,0.00,VWS V14.01,2013-01-14 12:02:00,
2013-01-14 06:05:00,30.4,27.3,30.27,NW,313,6.0,16.0,88,0.00,,---,0.00,VWS V14.01,2013-01-14 12:05:00,
2013-01-14 06:06:00,30.4,27.3,30.27,NNE,13,9.0,16.0,88,0.00,,---,0.00,VWS V14.01,2013-01-14 12:06:00,
2013-01-14 06:08:00,30.4,27.5,30.26,NNW,336,7.0,11.0,89,0.00,,---,0.00,VWS V14.01,2013-01-14 12:08:00,
2013-01-14 06:10:00,30.4,27.5,30.26,NNE,16,9.0,11.0,89,0.00,,---,0.00,VWS V14.01,2013-01-14 12:10:00,
2013-01-14 06:11:00,30.4,27.5,30.26,West,281,6.0,7.0,89,0.00,,---,0.00,VWS V14.01,2013-01-14 12:11:00,
2013-01-14 06:12:00,30.4,27.5,30.26,NNW,338,11.0,14.0,89,0.00,,---,0.00,VWS V14.01,2013-01-14 12:12:00,
2013-01-14 06:13:00,30.4,27.5,30.26,NW,308,12.0,14.0,89,0.00,,---,0.00,VWS V14.01,2013-01-14 12:13:00,
2013-01-14 06:15:00,30.4,27.5,30.26,NNW,331,7.0,14.0,89,0.00,,---,0.00,VWS V14.01,2013-01-14 12:15:00,
2013-01-14 06:16:00,30.4,27.5,30.26,NNW,336,7.0,11.0,89,0.00,,---,0.00,VWS V14.01,2013-01-14 12:16:00,
2013-01-14 06:17:00,30.4,27.5,30.26,NNE,26,12.0,12.0,89,0.00,,---,0.00,VWS V14.01,2013-01-14 12:17:00,
2013-01-14 06:18:00,30.3,27.5,30.27,NW,304,4.0,12.0,89,0.00,,---,0.00,VWS V14.01,2013-01-14 12:18:00,
2013-01-14 06:20:00,30.4,27.5,30.28,NNW,339,12.0,16.0,89,0.00,,---,0.00,VWS V14.01,2013-01-14 12:20:00,
2013-01-14 06:21:00,30.4,27.5,30.28,NW,317,8.0,9.0,89,0.00,,---,0.00,VWS V14.01,2013-01-14 12:21:00,
2013-01-14 06:22:00,30.4,27.3,30.28,NNW,331,5.0,11.0,88,0.00,,---,0.00,VWS V14.01,2013-01-14 12:22:00,
2013-01-14 06:23:00,30.4,27.5,30.28,NW,312,7.0,11.0,89,0.00,,---,0.00,VWS V14.01,2013-01-14 12:23:00,
2013-01-14 06:25:00,30.4,27.5,30.28,NE,42,3.0,13.0,89,0.00,,---,0.00,VWS V14.01,2013-01-14 12:25:00,
2013-01-14 06:26:00,30.4,27.5,30.28,WNW,286,1.0,7.0,89,0.00,,---,0.00,VWS V14.01,2013-01-14 12:26:00,
2013-01-14 06:27:00,30.4,27.5,30.28,NW,324,4.0,7.0,89,0.00,,---,0.00,VWS V14.01,2013-01-14 12:27:00,
2013-01-14 06:29:00,30.4,27.5,30.28,NW,306,4.0,7.0,89,0.00,,---,0.00,VWS V14.01,2013-01-14 12:29:00,
2013-01-14 06:30:00,29.8,26.7,30.28,WNW,299,5.0,12.0,88,0.00,,---,0.00,VWS V14.01,2013-01-14 12:30:00,
2013-01-14 06:31:00,30.4,27.5,30.28,NNW,329,7.0,7.0,89,0.00,,---,0.00,VWS V14.01,2013-01-14 12:31:00,
2013-01-14 06:32:00,30.4,27.5,30.27,NNW,335,11.0,13.0,89,0.00,,---,0.00,VWS V14.01,2013-01-14 12:32:00,
2013-01-14 06:34:00,30.4,27.3,30.28,NNW,329,5.0,15.0,88,0.00,,---,0.00,VWS V14.01,2013-01-14 12:34:00,
2013-01-14 06:35:00,29.9,27.1,30.29,NNE,16,6.0,6.0,89,0.00,,---,0.00,VWS V14.01,2013-01-14 12:35:00,
2013-01-14 06:36:00,30.3,27.5,30.28,NW,311,5.0,15.0,89,0.00,,---,0.00,VWS V14.01,2013-01-14 12:36:00,
2013-01-14 06:37:00,30.3,27.5,30.28,NNW,336,4.0,6.0,89,0.00,,---,0.00,VWS V14.01,2013-01-14 12:37:00,
2013-01-14 06:39:00,30.3,27.5,30.28,NNW,342,5.0,10.0,89,0.00,,---,0.00,VWS V14.01,2013-01-14 12:39:00,
2013-01-14 06:40:00,29.9,26.8,30.31,NNE,28,3.0,14.0,88,0.00,,---,0.00,VWS V14.01,2013-01-14 12:40:00,
2013-01-14 06:41:00,30.4,27.5,30.28,NW,315,5.0,7.0,89,0.00,,---,0.00,VWS V14.01,2013-01-14 12:41:00,
2013-01-14 06:42:00,30.3,27.5,30.28,NNE,16,6.0,14.0,89,0.00,,---,0.00,VWS V14.01,2013-01-14 12:42:00,
2013-01-14 06:44:00,30.3,27.2,30.29,NW,325,15.0,15.0,88,0.00,,---,0.00,VWS V14.01,2013-01-14 12:44:00,
2013-01-14 06:45:00,29.9,26.8,30.31,North,11,2.0,12.0,88,0.00,,---,0.00,VWS V14.01,2013-01-14 12:45:00,
2013-01-14 06:47:00,30.2,27.1,30.28,NE,44,7.0,12.0,88,0.00,,---,0.00,VWS V14.01,2013-01-14 12:47:00,
2013-01-14 06:49:00,30.2,27.1,30.29,NW,320,4.0,13.0,88,0.00,,---,0.00,VWS V14.01,2013-01-14 12:49:00,
2013-01-14 06:50:00,29.9,26.8,30.31,NNW,331,5.0,11.0,88,0.00,,---,0.00,VWS V14.01,2013-01-14 12:50:00,
2013-01-14 06:52:00,30.2,27.1,30.30,NNW,329,7.0,13.0,88,0.00,,---,0.00,VWS V14.01,2013-01-14 12:52:00,
2013-01-14 06:54:00,30.1,27.0,30.30,NW,306,5.0,13.0,88,0.00,,---,0.00,VWS V14.01,2013-01-14 12:54:00,
2013-01-14 06:55:00,29.9,26.8,30.30,NNE,29,2.0,12.0,88,0.00,,---,0.00,VWS V14.01,2013-01-14 12:55:00,
2013-01-14 06:57:00,30.0,26.9,30.30,NNE,16,9.0,11.0,88,0.00,,---,0.00,VWS V14.01,2013-01-14 12:57:00,
2013-01-14 06:58:00,30.0,26.9,30.30,NNW,346,10.0,12.0,88,0.00,,---,0.00,VWS V14.01,2013-01-14 12:58:00,
2013-01-14 06:59:00,30.0,26.6,30.30,NW,323,3.0,13.0,87,0.00,,---,0.00,VWS V14.01,2013-01-14 12:59:00,
2013-01-14 07:00:00,30.0,26.9,30.29,NW,313,3.0,9.0,88,0.00,,---,0.00,VWS V14.01,2013-01-14 13:00:00,
2013-01-14 07:02:00,30.0,26.9,30.30,NW,318,3.0,10.0,88,0.00,,---,0.00,VWS V14.01,2013-01-14 13:02:00,
2013-01-14 07:03:00,30.0,26.9,30.30,NNE,30,5.0,10.0,88,0.00,,---,0.00,VWS V14.01,2013-01-14 13:03:00,
2013-01-14 07:04:00,30.0,26.9,30.30,NW,311,9.0,12.0,88,0.00,,---,0.00,VWS V14.01,2013-01-14 13:04:00,
2013-01-14 07:05:00,29.9,26.8,30.29,NNW,348,6.0,14.0,88,0.00,,---,0.00,VWS V14.01,2013-01-14 13:05:00,
2013-01-14 07:07:00,30.0,26.9,30.30,NNW,333,12.0,17.0,88,0.00,,---,0.00,VWS V14.01,2013-01-14 13:07:00,
2013-01-14 07:08:00,30.0,26.9,30.29,NNW,331,4.0,17.0,88,0.00,,---,0.00,VWS V14.01,2013-01-14 13:08:00,
2013-01-14 07:09:00,30.0,26.9,30.29,NNE,18,10.0,17.0,88,0.00,,---,0.00,VWS V14.01,2013-01-14 13:09:00,
2013-01-14 07:10:00,29.9,26.8,30.30,NW,317,5.0,13.0,88,0.00,,---,0.00,VWS V14.01,2013-01-14 13:10:00,
2013-01-14 07:12:00,29.9,26.5,30.30,NW,321,4.0,9.0,87,0.00,,---,0.00,VWS V14.01,2013-01-14 13:12:00,
2013-01-14 07:13:00,29.9,26.8,30.30,NNW,339,7.0,9.0,88,0.00,,---,0.00,VWS V14.01,2013-01-14 13:13:00,
2013-01-14 07:14:00,29.9,26.5,30.29,NW,310,10.0,12.0,87,0.00,,---,0.00,VWS V14.01,2013-01-14 13:14:00,
2013-01-14 07:15:00,30.0,26.9,30.30,East,80,3.0,10.0,88,0.00,,---,0.00,VWS V14.01,2013-01-14 13:15:00,
2013-01-14 07:17:00,29.8,26.4,30.29,NNW,340,11.0,12.0,87,0.00,,---,0.00,VWS V14.01,2013-01-14 13:17:00,
2013-01-14 07:18:00,29.8,26.4,30.29,NNE,32,5.0,12.0,87,0.00,,---,0.00,VWS V14.01,2013-01-14 13:18:00,
2013-01-14 07:19:00,29.8,26.7,30.29,NNE,17,3.0,12.0,88,0.00,,---,0.00,VWS V14.01,2013-01-14 13:19:00,
2013-01-14 07:20:00,30.1,27.0,30.29,NNE,24,4.0,6.0,88,0.00,,---,0.00,VWS V14.01,2013-01-14 13:20:00,
2013-01-14 07:22:00,29.8,26.7,30.29,NNW,333,6.0,6.0,88,0.00,,---,0.00,VWS V14.01,2013-01-14 13:22:00,
2013-01-14 07:23:00,29.8,26.7,30.29,NNW,331,6.0,9.0,88,0.00,,---,0.00,VWS V14.01,2013-01-14 13:23:00,
2013-01-14 07:24:00,29.8,26.7,30.29,NNE,32,5.0,9.0,88,0.00,,---,0.00,VWS V14.01,2013-01-14 13:24:00,
2013-01-14 07:25:00,30.2,27.1,30.29,NW,315,4.0,10.0,88,0.00,,---,0.00,VWS V14.01,2013-01-14 13:25:00,
2013-01-14 07:27:00,29.8,26.7,30.29,NW,313,5.0,10.0,88,0.00,,---,0.00,VWS V14.01,2013-01-14 13:27:00,
2013-01-14 07:28:00,29.8,26.7,30.29,NNE,27,5.0,12.0,88,0.00,,---,0.00,VWS V14.01,2013-01-14 13:28:00,
2013-01-14 07:29:00,29.8,26.7,30.28,NW,314,5.0,12.0,88,0.00,,---,0.00,VWS V14.01,2013-01-14 13:29:00,
2013-01-14 07:30:00,30.1,27.0,30.30,NNW,346,5.0,11.0,88,0.00,,---,0.00,VWS V14.01,2013-01-14 13:30:00,
2013-01-14 07:32:00,29.8,26.7,30.28,NNW,329,6.0,6.0,88,0.00,,---,0.00,VWS V14.01,2013-01-14 13:32:00,
2013-01-14 07:33:00,29.8,26.7,30.28,NE,36,4.0,6.0,88,0.00,,---,0.00,VWS V14.01,2013-01-14 13:33:00,
2013-01-14 07:34:00,29.8,26.7,30.28,NW,322,2.0,6.0,88,0.00,,---,0.00,VWS V14.01,2013-01-14 13:34:00,
2013-01-14 07:35:00,30.1,27.0,30.29,NNW,331,4.0,14.0,88,0.00,,---,0.00,VWS V14.01,2013-01-14 13:35:00,
2013-01-14 07:37:00,29.9,27.1,30.29,NNW,342,7.0,11.0,89,0.00,,---,0.00,VWS V14.01,2013-01-14 13:37:00,
2013-01-14 07:38:00,29.9,26.8,30.30,WSW,237,5.0,14.0,88,0.00,,---,0.00,VWS V14.01,2013-01-14 13:38:00,
2013-01-14 07:39:00,29.9,26.8,30.30,WNW,298,4.0,14.0,88,0.00,,---,0.00,VWS V14.01,2013-01-14 13:39:00,
2013-01-14 07:40:00,29.9,26.8,30.30,NNW,339,6.0,14.0,88,0.00,,---,0.00,VWS V14.01,2013-01-14 13:40:00,
2013-01-14 07:42:00,29.9,26.8,30.31,NNW,343,7.0,12.0,88,0.00,,---,0.00,VWS V14.01,2013-01-14 13:42:00,
2013-01-14 07:43:00,29.9,26.8,30.31,NW,323,9.0,12.0,88,0.00,,---,0.00,VWS V14.01,2013-01-14 13:43:00,
2013-01-14 07:44:00,29.9,26.8,30.31,NW,315,4.0,12.0,88,0.00,,---,0.00,VWS V14.01,2013-01-14 13:44:00,
2013-01-14 07:45:00,29.9,26.8,30.31,NW,323,6.0,12.0,88,0.00,,---,0.00,VWS V14.01,2013-01-14 13:45:00,
2013-01-14 07:47:00,29.9,26.8,30.31,WNW,303,5.0,7.0,88,0.00,,---,0.00,VWS V14.01,2013-01-14 13:47:00,
2013-01-14 07:48:00,29.9,26.8,30.31,North,5,4.0,7.0,88,0.00,,---,0.00,VWS V14.01,2013-01-14 13:48:00,
2013-01-14 07:49:00,29.9,26.8,30.31,NNW,346,3.0,7.0,88,0.00,,---,0.00,VWS V14.01,2013-01-14 13:49:00,
2013-01-14 07:50:00,29.9,26.8,30.31,NW,319,5.0,7.0,88,0.00,,---,0.00,VWS V14.01,2013-01-14 13:50:00,
2013-01-14 07:52:00,29.9,26.8,30.30,NNW,335,7.0,12.0,88,0.00,,---,0.00,VWS V14.01,2013-01-14 13:52:00,
2013-01-14 07:53:00,29.9,26.8,30.30,NNE,26,4.0,12.0,88,0.00,,---,0.00,VWS V14.01,2013-01-14 13:53:00,
2013-01-14 07:54:00,29.9,26.8,30.30,NW,312,3.0,12.0,88,0.00,,---,0.00,VWS V14.01,2013-01-14 13:54:00,
2013-01-14 07:55:00,29.9,26.8,30.30,NNW,333,3.0,12.0,88,0.00,,---,0.00,VWS V14.01,2013-01-14 13:55:00,
2013-01-14 07:57:00,29.9,26.8,30.30,NNE,32,4.0,6.0,88,0.00,,---,0.00,VWS V14.01,2013-01-14 13:57:00,
2013-01-14 07:58:00,29.9,26.8,30.30,WNW,303,2.0,7.0,88,0.00,,---,0.00,VWS V14.01,2013-01-14 13:58:00,
2013-01-14 07:59:00,30.0,26.9,30.30,NW,326,4.0,7.0,88,0.00,,---,0.00,VWS V14.01,2013-01-14 13:59:00,
2013-01-14 08:00:00,30.0,26.9,30.29,NNW,329,5.0,9.0,88,0.00,,---,0.00,VWS V14.01,2013-01-14 14:00:00,
2013-01-14 08:02:00,30.0,26.9,30.29,NNE,16,6.0,14.0,88,0.00,,---,0.00,VWS V14.01,2013-01-14 14:02:00,
2013-01-14 08:04:00,29.9,26.8,30.29,NW,311,7.0,14.0,88,0.00,,---,0.00,VWS V14.01,2013-01-14 14:04:00,
2013-01-14 08:05:00,29.9,26.8,30.29,NE,49,6.0,14.0,88,0.00,,---,0.00,VWS V14.01,2013-01-14 14:05:00,
2013-01-14 08:07:00,29.9,26.8,30.29,NW,311,7.0,13.0,88,0.00,,---,0.00,VWS V14.01,2013-01-14 14:07:00,
2013-01-14 08:09:00,29.9,26.5,30.29,NNW,336,10.0,13.0,87,0.00,,---,0.00,VWS V14.01,2013-01-14 14:09:00,
2013-01-14 08:10:00,29.9,26.5,30.29,NNE,24,4.0,13.0,87,0.00,,---,0.00,VWS V14.01,2013-01-14 14:10:00,
2013-01-14 08:12:00,29.9,26.8,30.30,NNW,338,3.0,10.0,88,0.00,,---,0.00,VWS V14.01,2013-01-14 14:12:00,
2013-01-14 08:14:00,29.9,26.8,30.30,NW,315,5.0,10.0,88,0.00,,---,0.00,VWS V14.01,2013-01-14 14:14:00,
2013-01-14 08:15:00,30.0,26.9,30.30,North,360,6.0,10.0,88,0.00,,---,0.00,VWS V14.01,2013-01-14 14:15:00,
2013-01-14 08:17:00,30.0,26.9,30.30,NW,319,1.0,6.0,88,0.00,,---,0.00,VWS V14.01,2013-01-14 14:17:00,
2013-01-14 08:19:00,30.0,26.9,30.30,NNW,346,3.0,6.0,88,0.00,,---,0.00,VWS V14.01,2013-01-14 14:19:00,
2013-01-14 08:20:00,30.1,27.0,30.29,WNW,299,4.0,6.0,88,0.00,,---,0.00,VWS V14.01,2013-01-14 14:20:00,
2013-01-14 08:22:00,30.2,27.1,30.29,NW,324,4.0,6.0,88,0.00,,---,0.00,VWS V14.01,2013-01-14 14:22:00,
2013-01-14 08:24:00,30.2,27.1,30.29,NW,313,9.0,9.0,88,0.00,,---,0.00,VWS V14.01,2013-01-14 14:24:00,
2013-01-14 08:25:00,30.2,27.1,30.29,NNW,342,10.0,10.0,88,0.00,,---,0.00,VWS V14.01,2013-01-14 14:25:00,
2013-01-14 08:26:00,30.2,27.1,30.29,NNW,340,9.0,10.0,88,0.00,,---,0.00,VWS V14.01,2013-01-14 14:26:00,
2013-01-14 08:28:00,30.1,27.0,30.30,NNW,329,7.0,9.0,88,0.00,,---,0.00,VWS V14.01,2013-01-14 14:28:00,
2013-01-14 08:29:00,30.1,27.0,30.30,NW,309,6.0,10.0,88,0.00,,---,0.00,VWS V14.01,2013-01-14 14:29:00,
2013-01-14 08:30:00,30.1,26.7,30.30,NNW,344,3.0,11.0,87,0.00,,---,0.00,VWS V14.01,2013-01-14 14:30:00,
2013-01-14 08:31:00,30.1,26.7,30.30,NW,306,4.0,11.0,87,0.00,,---,0.00,VWS V14.01,2013-01-14 14:31:00,
2013-01-14 08:33:00,30.1,27.0,30.29,NNW,346,7.0,11.0,88,0.00,,---,0.00,VWS V14.01,2013-01-14 14:33:00,
2013-01-14 08:34:00,30.1,27.0,30.29,NE,35,6.0,11.0,88,0.00,,---,0.00,VWS V14.01,2013-01-14 14:34:00,
2013-01-14 08:35:00,30.6,27.5,30.29,NW,311,5.0,8.0,88,0.00,,---,0.00,VWS V14.01,2013-01-14 14:35:00,
2013-01-14 08:36:00,30.1,27.0,30.29,NE,51,9.0,14.0,88,0.00,,---,0.00,VWS V14.01,2013-01-14 14:36:00,
2013-01-14 08:38:00,30.1,27.0,30.29,NNE,30,5.0,11.0,88,0.00,,---,0.00,VWS V14.01,2013-01-14 14:38:00,
2013-01-14 08:39:00,30.1,27.0,30.29,NE,40,6.0,11.0,88,0.00,,---,0.00,VWS V14.01,2013-01-14 14:39:00,
2013-01-14 08:40:00,30.7,27.9,30.30,NNW,342,4.0,9.0,89,0.00,,---,0.00,VWS V14.01,2013-01-14 14:40:00,
2013-01-14 08:41:00,30.1,27.0,30.29,NNE,13,7.0,11.0,88,0.00,,---,0.00,VWS V14.01,2013-01-14 14:41:00,
2013-01-14 08:43:00,30.2,27.1,30.28,NNE,28,3.0,8.0,88,0.00,,---,0.00,VWS V14.01,2013-01-14 14:43:00,
2013-01-14 08:44:00,30.2,27.1,30.28,NE,35,10.0,10.0,88,0.00,,---,0.00,VWS V14.01,2013-01-14 14:44:00,
2013-01-14 08:45:00,30.8,28.0,30.29,NW,312,6.0,10.0,89,0.00,,---,0.00,VWS V14.01,2013-01-14 14:45:00,
2013-01-14 08:46:00,30.2,27.1,30.29,NNW,327,7.0,13.0,88,0.00,,---,0.00,VWS V14.01,2013-01-14 14:46:00,
2013-01-14 08:48:00,30.2,27.1,30.29,NNE,29,5.0,8.0,88,0.00,,---,0.00,VWS V14.01,2013-01-14 14:48:00,
2013-01-14 08:49:00,30.3,27.2,30.29,NNE,17,9.0,12.0,88,0.00,,---,0.00,VWS V14.01,2013-01-14 14:49:00,
2013-01-14 08:50:00,30.8,28.0,30.29,NE,42,4.0,11.0,89,0.00,,---,0.00,VWS V14.01,2013-01-14 14:50:00,
2013-01-14 08:51:00,30.3,27.2,30.28,NE,35,7.0,12.0,88,0.00,,---,0.00,VWS V14.01,2013-01-14 14:51:00,
2013-01-14 08:53:00,30.3,27.2,30.28,NE,42,10.0,11.0,88,0.00,,---,0.00,VWS V14.01,2013-01-14 14:53:00,
2013-01-14 08:54:00,30.4,27.3,30.28,NNE,32,5.0,11.0,88,0.00,,---,0.00,VWS V14.01,2013-01-14 14:54:00,
2013-01-14 08:55:00,30.9,28.0,30.28,NW,313,4.0,10.0,89,0.00,,---,0.00,VWS V14.01,2013-01-14 14:55:00,
2013-01-14 08:56:00,30.4,27.3,30.28,North,5,3.0,12.0,88,0.00,,---,0.00,VWS V14.01,2013-01-14 14:56:00,
2013-01-14 08:57:00,30.4,27.5,30.29,NE,34,6.0,7.0,89,0.00,,---,0.00,VWS V14.01,2013-01-14 14:57:00,
2013-01-14 08:58:00,30.4,27.5,30.29,NW,317,4.0,11.0,89,0.00,,---,0.00,VWS V14.01,2013-01-14 14:58:00,
2013-01-14 08:59:00,30.4,27.5,30.29,North,355,11.0,11.0,89,0.00,,---,0.00,VWS V14.01,2013-01-14 14:59:00,
2013-01-14 09:00:00,31.0,28.1,30.26,NNW,339,9.0,13.0,89,0.00,,---,0.00,VWS V14.01,2013-01-14 15:00:00,
2013-01-14 09:01:00,30.4,27.3,30.29,NNW,341,1.0,12.0,88,0.00,,---,0.00,VWS V14.01,2013-01-14 15:01:00,
2013-01-14 09:02:00,30.4,27.3,30.29,NW,319,2.0,3.0,88,0.00,,---,0.00,VWS V14.01,2013-01-14 15:02:00,
2013-01-14 09:04:00,30.5,27.6,30.30,NE,49,4.0,12.0,89,0.00,,---,0.00,VWS V14.01,2013-01-14 15:04:00,
2013-01-14 09:05:00,31.0,28.1,30.27,ESE,114,2.0,10.0,89,0.00,,---,0.00,VWS V14.01,2013-01-14 15:05:00,
2013-01-14 09:06:00,30.5,27.4,30.30,NNW,331,4.0,12.0,88,0.00,,---,0.00,VWS V14.01,2013-01-14 15:06:00,
2013-01-14 09:07:00,30.5,27.4,30.30,NE,42,11.0,11.0,88,0.00,,---,0.00,VWS V14.01,2013-01-14 15:07:00,
2013-01-14 09:09:00,30.5,27.6,30.29,NNW,337,5.0,12.0,89,0.00,,---,0.00,VWS V14.01,2013-01-14 15:09:00,
2013-01-14 09:10:00,31.2,28.3,30.27,NW,317,3.0,8.0,89,0.00,,---,0.00,VWS V14.01,2013-01-14 15:10:00,
2013-01-14 09:11:00,30.5,27.6,30.29,NNE,17,3.0,12.0,89,0.00,,---,0.00,VWS V14.01,2013-01-14 15:11:00,
2013-01-14 09:12:00,30.5,27.6,30.28,NNE,28,6.0,11.0,89,0.00,,---,0.00,VWS V14.01,2013-01-14 15:12:00,
2013-01-14 09:14:00,30.5,27.4,30.28,NNW,331,4.0,11.0,88,0.00,,---,0.00,VWS V14.01,2013-01-14 15:14:00,
2013-01-14 09:15:00,31.3,28.4,30.27,NNW,340,7.0,11.0,89,0.00,,---,0.00,VWS V14.01,2013-01-14 15:15:00,
2013-01-14 09:16:00,30.5,27.4,30.27,NNE,15,4.0,11.0,88,0.00,,---,0.00,VWS V14.01,2013-01-14 15:16:00,
2013-01-14 09:17:00,30.5,27.4,30.27,NNW,331,3.0,11.0,88,0.00,,---,0.00,VWS V14.01,2013-01-14 15:17:00,
2013-01-14 09:19:00,30.5,27.6,30.27,NW,313,3.0,11.0,89,0.00,,---,0.00,VWS V14.01,2013-01-14 15:19:00,
2013-01-14 09:20:00,31.4,28.3,30.26,NNW,344,1.0,10.0,88,0.00,,---,0.00,VWS V14.01,2013-01-14 15:20:00,
2013-01-14 09:21:00,30.4,27.3,30.26,NNE,26,9.0,9.0,88,0.00,,---,0.00,VWS V14.01,2013-01-14 15:21:00,
2013-01-14 09:22:00,30.5,27.4,30.26,NNW,330,8.0,12.0,88,0.00,,---,0.00,VWS V14.01,2013-01-14 15:22:00,
2013-01-14 09:24:00,30.4,27.3,30.27,ENE,71,5.0,12.0,88,0.00,,---,0.00,VWS V14.01,2013-01-14 15:24:00,
2013-01-14 09:25:00,30.4,27.5,30.27,NNE,12,7.0,12.0,89,0.00,,---,0.00,VWS V14.01,2013-01-14 15:25:00,
2013-01-14 09:26:00,30.4,27.3,30.27,NE,51,1.0,3.0,88,0.00,,---,0.00,VWS V14.01,2013-01-14 15:26:00,
2013-01-14 09:27:00,30.5,27.6,30.27,ENE,62,6.0,9.0,89,0.00,,---,0.00,VWS V14.01,2013-01-14 15:27:00,
2013-01-14 09:29:00,30.5,27.6,30.28,NNE,12,5.0,10.0,89,0.00,,---,0.00,VWS V14.01,2013-01-14 15:29:00,
2013-01-14 09:30:00,30.5,27.6,30.28,NE,47,7.0,10.0,89,0.00,,---,0.00,VWS V14.01,2013-01-14 15:30:00,
2013-01-14 09:31:00,30.5,27.6,30.29,NW,306,5.0,7.0,89,0.00,,---,0.00,VWS V14.01,2013-01-14 15:31:00,
2013-01-14 09:33:00,30.5,27.6,30.29,NW,318,2.0,7.0,89,0.00,,---,0.00,VWS V14.01,2013-01-14 15:33:00,
2013-01-14 09:34:00,30.6,27.8,30.29,WNW,294,4.0,7.0,89,0.00,,---,0.00,VWS V14.01,2013-01-14 15:34:00,
2013-01-14 09:35:00,30.6,27.8,30.29,NW,326,8.0,8.0,89,0.00,,---,0.00,VWS V14.01,2013-01-14 15:35:00,
2013-01-14 09:36:00,30.6,27.5,30.29,North,350,4.0,6.0,88,0.00,,---,0.00,VWS V14.01,2013-01-14 15:36:00,
2013-01-14 09:38:00,30.6,27.8,30.29,NE,49,6.0,9.0,89,0.00,,---,0.00,VWS V14.01,2013-01-14 15:38:00,
2013-01-14 09:39:00,30.6,27.8,30.29,NW,312,2.0,9.0,89,0.00,,---,0.00,VWS V14.01,2013-01-14 15:39:00,
2013-01-14 09:40:00,30.7,27.9,30.29,NNE,13,1.0,9.0,89,0.00,,---,0.00,VWS V14.01,2013-01-14 15:40:00,
2013-01-14 09:41:00,30.7,27.9,30.29,NW,321,4.0,4.0,89,0.00,,---,0.00,VWS V14.01,2013-01-14 15:41:00,
2013-01-14 09:43:00,30.8,28.0,30.29,NNE,20,3.0,10.0,89,0.00,,---,0.00,VWS V14.01,2013-01-14 15:43:00,
2013-01-14 09:44:00,30.8,28.0,30.29,NNW,333,7.0,10.0,89,0.00,,---,0.00,VWS V14.01,2013-01-14 15:44:00,
2013-01-14 09:45:00,30.8,28.0,30.29,NW,320,4.0,10.0,89,0.00,,---,0.00,VWS V14.01,2013-01-14 15:45:00,
2013-01-14 09:46:00,30.8,28.0,30.29,North,360,7.0,8.0,89,0.00,,---,0.00,VWS V14.01,2013-01-14 15:46:00,
2013-01-14 09:48:00,30.8,28.0,30.29,NW,313,4.0,11.0,89,0.00,,---,0.00,VWS V14.01,2013-01-14 15:48:00,
2013-01-14 09:49:00,30.8,28.0,30.29,NW,320,5.0,11.0,89,0.00,,---,0.00,VWS V14.01,2013-01-14 15:49:00,
2013-01-14 09:50:00,30.8,28.0,30.29,NNE,20,5.0,11.0,89,0.00,,---,0.00,VWS V14.01,2013-01-14 15:50:00,
2013-01-14 09:51:00,30.8,28.0,30.29,NE,40,4.0,4.0,89,0.00,,---,0.00,VWS V14.01,2013-01-14 15:51:00,
2013-01-14 09:53:00,30.8,28.0,30.28,NNW,340,5.0,8.0,89,0.00,,---,0.00,VWS V14.01,2013-01-14 15:53:00,
2013-01-14 09:54:00,30.8,28.0,30.28,NNW,340,7.0,8.0,89,0.00,,---,0.00,VWS V14.01,2013-01-14 15:54:00,
2013-01-14 09:55:00,30.9,28.0,30.28,NNW,331,3.0,8.0,89,0.00,,---,0.00,VWS V14.01,2013-01-14 15:55:00,
2013-01-14 09:56:00,30.9,28.0,30.28,NNW,338,5.0,5.0,89,0.00,,---,0.00,VWS V14.01,2013-01-14 15:56:00,
2013-01-14 09:58:00,30.9,28.0,30.27,NNW,340,6.0,7.0,89,0.00,,---,0.00,VWS V14.01,2013-01-14 15:58:00,
2013-01-14 10:00:00,31.0,28.1,30.27,NW,320,7.0,13.0,89,0.00,,---,0.00,VWS V14.01,2013-01-14 16:00:00,
2013-01-14 10:02:00,31.0,28.1,30.26,NW,317,4.0,9.0,89,0.00,,---,0.00,VWS V14.01,2013-01-14 16:02:00,
2013-01-14 10:03:00,31.0,28.1,30.26,NW,311,6.0,9.0,89,0.00,,---,0.00,VWS V14.01,2013-01-14 16:03:00,
2013-01-14 10:05:00,31.0,27.9,30.26,NE,35,5.0,10.0,88,0.00,,---,0.00,VWS V14.01,2013-01-14 16:05:00,
2013-01-14 10:07:00,31.1,28.2,30.27,NNE,26,3.0,4.0,89,0.00,,---,0.00,VWS V14.01,2013-01-14 16:07:00,
2013-01-14 10:08:00,31.1,28.2,30.27,North,5,6.0,8.0,89,0.00,,---,0.00,VWS V14.01,2013-01-14 16:08:00,
2013-01-14 10:10:00,31.2,28.3,30.27,NNE,28,6.0,8.0,89,0.00,,---,0.00,VWS V14.01,2013-01-14 16:10:00,
2013-01-14 10:12:00,31.3,28.4,30.27,North,360,7.0,7.0,89,0.00,,---,0.00,VWS V14.01,2013-01-14 16:12:00,
2013-01-14 10:13:00,31.3,28.4,30.27,North,360,6.0,11.0,89,0.00,,---,0.00,VWS V14.01,2013-01-14 16:13:00,
2013-01-14 10:15:00,31.3,28.4,30.27,NNW,333,3.0,11.0,89,0.00,,---,0.00,VWS V14.01,2013-01-14 16:15:00,
2013-01-14 10:16:00,31.3,28.4,30.27,NNE,30,4.0,11.0,89,0.00,,---,0.00,VWS V14.01,2013-01-14 16:16:00,
2013-01-14 10:17:00,31.3,28.4,30.27,NNW,330,6.0,7.0,89,0.00,,---,0.00,VWS V14.01,2013-01-14 16:17:00,
2013-01-14 10:18:00,31.4,28.3,30.27,NE,42,6.0,7.0,88,0.00,,---,0.00,VWS V14.01,2013-01-14 16:18:00,
2013-01-14 10:20:00,31.4,28.3,30.26,NNW,336,3.0,10.0,88,0.00,,---,0.00,VWS V14.01,2013-01-14 16:20:00,
2013-01-14 10:21:00,31.4,28.3,30.26,NW,311,1.0,10.0,88,0.00,,---,0.00,VWS V14.01,2013-01-14 16:21:00,
2013-01-14 10:22:00,31.4,28.5,30.27,East,87,1.0,6.0,89,0.00,,---,0.00,VWS V14.01,2013-01-14 16:22:00,
2013-01-14 10:23:00,31.4,28.5,30.26,ESE,123,4.0,8.0,89,0.00,,---,0.00,VWS V14.01,2013-01-14 16:23:00,
2013-01-14 10:25:00,31.5,28.6,30.26,NNW,327,2.0,9.0,89,0.00,,---,0.00,VWS V14.01,2013-01-14 16:25:00,
2013-01-14 10:26:00,31.5,28.6,30.26,NNW,336,4.0,9.0,89,0.00,,---,0.00,VWS V14.01,2013-01-14 16:26:00,
2013-01-14 10:27:00,31.6,28.7,30.26,NNW,331,6.0,6.0,89,0.00,,---,0.00,VWS V14.01,2013-01-14 16:27:00,
2013-01-14 10:28:00,31.6,28.7,30.26,NNE,30,6.0,6.0,89,0.00,,---,0.00,VWS V14.01,2013-01-14 16:28:00,
2013-01-14 10:30:00,31.6,28.7,30.25,NW,315,3.0,7.0,89,0.00,,---,0.00,VWS V14.01,2013-01-14 16:30:00,
2013-01-14 10:31:00,31.7,28.8,30.25,North,351,4.0,9.0,89,0.00,,---,0.00,VWS V14.01,2013-01-14 16:31:00,
2013-01-14 10:32:00,31.7,28.8,30.26,NNE,13,8.0,8.0,89,0.00,,---,0.00,VWS V14.01,2013-01-14 16:32:00,
2013-01-14 10:34:00,31.8,28.9,30.26,NNW,337,6.0,8.0,89,0.00,,---,0.00,VWS V14.01,2013-01-14 16:34:00,
2013-01-14 10:35:00,32.6,29.5,30.23,NW,317,6.0,9.0,88,0.00,,---,0.00,VWS V14.01,2013-01-14 16:35:00,
2013-01-14 10:36:00,31.8,28.9,30.26,NW,323,5.0,11.0,89,0.00,,---,0.00,VWS V14.01,2013-01-14 16:36:00,
2013-01-14 10:37:00,31.9,29.0,30.26,WNW,294,2.0,6.0,89,0.00,,---,0.00,VWS V14.01,2013-01-14 16:37:00,
2013-01-14 10:39:00,32.0,29.1,30.26,NW,315,5.0,8.0,89,0.00,,---,0.00,VWS V14.01,2013-01-14 16:39:00,
2013-01-14 10:40:00,32.6,29.5,30.23,NW,310,3.0,14.0,88,0.00,,---,0.00,VWS V14.01,2013-01-14 16:40:00,
2013-01-14 10:41:00,32.1,29.2,30.26,NE,40,3.0,10.0,89,0.00,,---,0.00,VWS V14.01,2013-01-14 16:41:00,
2013-01-14 10:42:00,32.1,29.2,30.26,NNE,17,3.0,7.0,89,0.00,,---,0.00,VWS V14.01,2013-01-14 16:42:00,
2013-01-14 10:44:00,32.1,29.2,30.26,NE,44,3.0,7.0,89,0.00,,---,0.00,VWS V14.01,2013-01-14 16:44:00,
2013-01-14 10:45:00,32.6,29.5,30.23,NNE,29,6.0,11.0,88,0.00,,---,0.00,VWS V14.01,2013-01-14 16:45:00,
2013-01-14 10:46:00,32.2,29.3,30.26,NW,308,2.0,9.0,89,0.00,,---,0.00,VWS V14.01,2013-01-14 16:46:00,
2013-01-14 10:47:00,32.2,29.3,30.27,NW,309,11.0,11.0,89,0.00,,---,0.00,VWS V14.01,2013-01-14 16:47:00,
2013-01-14 10:49:00,32.2,29.0,30.27,NW,321,2.0,11.0,88,0.00,,---,0.00,VWS V14.01,2013-01-14 16:49:00,
2013-01-14 10:50:00,32.7,29.5,30.23,NNW,342,5.0,11.0,88,0.00,,---,0.00,VWS V14.01,2013-01-14 16:50:00,
2013-01-14 10:51:00,32.2,29.0,30.27,NNW,341,5.0,11.0,88,0.00,,---,0.00,VWS V14.01,2013-01-14 16:51:00,
2013-01-14 10:52:00,32.2,29.0,30.27,SSE,163,1.0,6.0,88,0.00,,---,0.00,VWS V14.01,2013-01-14 16:52:00,
2013-01-14 10:54:00,32.2,29.0,30.26,NW,317,1.0,6.0,88,0.00,,---,0.00,VWS V14.01,2013-01-14 16:54:00,
2013-01-14 10:55:00,32.8,29.4,30.22,WNW,303,2.0,11.0,87,0.00,,---,0.00,VWS V14.01,2013-01-14 16:55:00,
2013-01-14 10:56:00,32.3,29.4,30.26,NNW,331,6.0,7.0,89,0.00,,---,0.00,VWS V14.01,2013-01-14 16:56:00,
2013-01-14 10:57:00,32.3,29.4,30.26,NE,50,3.0,6.0,89,0.00,,---,0.00,VWS V14.01,2013-01-14 16:57:00,
2013-01-14 10:59:00,32.3,29.1,30.26,NNE,13,4.0,9.0,88,0.00,,---,0.00,VWS V14.01,2013-01-14 16:59:00,
2013-01-14 11:00:00,32.7,29.3,30.22,NW,326,5.0,9.0,87,0.00,,---,0.00,VWS V14.01,2013-01-14 17:00:00,
2013-01-14 11:01:00,32.4,29.2,30.26,NNW,333,3.0,9.0,88,0.00,,---,0.00,VWS V14.01,2013-01-14 17:01:00,
2013-01-14 11:02:00,32.4,29.2,30.25,NNW,333,8.0,9.0,88,0.00,,---,0.00,VWS V14.01,2013-01-14 17:02:00,
2013-01-14 11:04:00,32.4,29.2,30.26,NW,317,4.0,10.0,88,0.00,,---,0.00,VWS V14.01,2013-01-14 17:04:00,
2013-01-14 11:05:00,32.7,29.3,30.22,NNW,337,3.0,12.0,87,0.00,,---,0.00,VWS V14.01,2013-01-14 17:05:00,
2013-01-14 11:06:00,32.4,29.5,30.26,NNW,336,3.0,3.0,89,0.00,,---,0.00,VWS V14.01,2013-01-14 17:06:00,
2013-01-14 11:07:00,32.4,29.5,30.26,NE,35,7.0,7.0,89,0.00,,---,0.00,VWS V14.01,2013-01-14 17:07:00,
2013-01-14 11:09:00,32.4,29.2,30.26,NW,326,6.0,13.0,88,0.00,,---,0.00,VWS V14.01,2013-01-14 17:09:00,
2013-01-14 11:10:00,32.7,29.3,30.20,WNW,301,1.0,12.0,87,0.00,,---,0.00,VWS V14.01,2013-01-14 17:10:00,
2013-01-14 11:11:00,32.4,29.2,30.26,NW,323,5.0,7.0,88,0.00,,---,0.00,VWS V14.01,2013-01-14 17:11:00,
2013-01-14 11:12:00,32.4,29.2,30.26,NW,323,5.0,7.0,88,0.00,,---,0.00,VWS V14.01,2013-01-14 17:12:00,
2013-01-14 11:15:00,32.5,29.6,30.26,NE,39,2.0,7.0,89,0.00,,---,0.00,VWS V14.01,2013-01-14 17:15:00,
2013-01-14 11:16:00,32.5,29.6,30.26,NW,311,4.0,4.0,89,0.00,,---,0.00,VWS V14.01,2013-01-14 17:16:00,
2013-01-14 11:17:00,32.5,29.6,30.26,NW,317,4.0,4.0,89,0.00,,---,0.00,VWS V14.01,2013-01-14 17:17:00,
2013-01-14 11:20:00,32.6,29.5,30.26,NW,317,5.0,12.0,88,0.00,,---,0.00,VWS V14.01,2013-01-14 17:20:00,
2013-01-14 11:21:00,32.6,29.7,30.25,NE,35,6.0,6.0,89,0.00,,---,0.00,VWS V14.01,2013-01-14 17:21:00,
2013-01-14 11:22:00,32.6,29.7,30.25,North,350,5.0,7.0,89,0.00,,---,0.00,VWS V14.01,2013-01-14 17:22:00,
2013-01-14 11:23:00,32.6,29.5,30.25,NW,326,5.0,7.0,88,0.00,,---,0.00,VWS V14.01,2013-01-14 17:23:00,
2013-01-14 11:25:00,32.6,29.5,30.25,NW,317,3.0,8.0,88,0.00,,---,0.00,VWS V14.01,2013-01-14 17:25:00,
2013-01-14 11:27:00,32.6,29.5,30.25,NNE,32,5.0,5.0,88,0.00,,---,0.00,VWS V14.01,2013-01-14 17:27:00,
2013-01-14 11:28:00,32.6,29.5,30.25,NNW,331,8.0,9.0,88,0.00,,---,0.00,VWS V14.01,2013-01-14 17:28:00,
2013-01-14 11:30:00,32.6,29.5,30.25,NNW,331,6.0,9.0,88,0.00,,---,0.00,VWS V14.01,2013-01-14 17:30:00,
2013-01-14 11:32:00,32.6,29.5,30.24,NNW,338,4.0,5.0,88,0.00,,---,0.00,VWS V14.01,2013-01-14 17:32:00,
2013-01-14 11:33:00,32.6,29.5,30.24,NNW,331,2.0,6.0,88,0.00,,---,0.00,VWS V14.01,2013-01-14 17:33:00,
2013-01-14 11:35:00,32.6,29.5,30.23,NNW,329,4.0,9.0,88,0.00,,---,0.00,VWS V14.01,2013-01-14 17:35:00,
2013-01-14 11:37:00,32.6,29.5,30.23,NW,311,4.0,9.0,88,0.00,,---,0.00,VWS V14.01,2013-01-14 17:37:00,
2013-01-14 11:38:00,32.6,29.5,30.23,NNW,327,3.0,9.0,88,0.00,,---,0.00,VWS V14.01,2013-01-14 17:38:00,
2013-01-14 11:40:00,32.6,29.5,30.23,NW,308,7.0,14.0,88,0.00,,---,0.00,VWS V14.01,2013-01-14 17:40:00,
2013-01-14 11:42:00,32.6,29.5,30.23,NW,326,5.0,5.0,88,0.00,,---,0.00,VWS V14.01,2013-01-14 17:42:00,
2013-01-14 11:43:00,32.6,29.5,30.23,WNW,298,3.0,11.0,88,0.00,,---,0.00,VWS V14.01,2013-01-14 17:43:00,
2013-01-14 11:45:00,32.7,29.5,30.23,NE,53,5.0,11.0,88,0.00,,---,0.00,VWS V14.01,2013-01-14 17:45:00,
2013-01-14 11:47:00,32.7,29.5,30.23,NE,38,6.0,10.0,88,0.00,,---,0.00,VWS V14.01,2013-01-14 17:47:00,
2013-01-14 11:48:00,32.6,29.5,30.23,WNW,301,2.0,11.0,88,0.00,,---,0.00,VWS V14.01,2013-01-14 17:48:00,
2013-01-14 11:50:00,32.8,28.8,30.20,NW,313,5.0,12.0,85,0.00,,---,0.00,VWS V14.01,2013-01-14 17:50:00,
2013-01-14 11:51:00,32.7,29.5,30.23,NNE,12,4.0,11.0,88,0.00,,---,0.00,VWS V14.01,2013-01-14 17:51:00,
2013-01-14 11:52:00,32.7,29.5,30.23,North,350,7.0,7.0,88,0.00,,---,0.00,VWS V14.01,2013-01-14 17:52:00,
2013-01-14 11:53:00,32.7,29.5,30.22,NNW,331,6.0,11.0,88,0.00,,---,0.00,VWS V14.01,2013-01-14 17:53:00,
2013-01-14 11:55:00,32.7,28.4,30.21,WNW,302,10.0,10.0,84,0.00,,---,0.00,VWS V14.01,2013-01-14 17:55:00,
2013-01-14 11:56:00,32.7,29.3,30.22,NNE,17,4.0,11.0,87,0.00,,---,0.00,VWS V14.01,2013-01-14 17:56:00,
2013-01-14 11:57:00,32.7,29.3,30.22,NNW,329,4.0,6.0,87,0.00,,---,0.00,VWS V14.01,2013-01-14 17:57:00,
2013-01-14 11:58:00,32.7,29.3,30.22,NNW,338,3.0,9.0,87,0.00,,---,0.00,VWS V14.01,2013-01-14 17:58:00,
2013-01-14 12:00:00,32.7,28.7,30.23,NW,313,6.0,12.0,85,0.00,,---,0.00,VWS V14.01,2013-01-14 18:00:00,
2013-01-14 12:01:00,32.7,29.3,30.22,NNW,328,5.0,9.0,87,0.00,,---,0.00,VWS V14.01,2013-01-14 18:01:00,
2013-01-14 12:02:00,32.7,29.3,30.22,NNW,346,5.0,7.0,87,0.00,,---,0.00,VWS V14.01,2013-01-14 18:02:00,
2013-01-14 12:04:00,32.7,29.3,30.22,NNE,27,6.0,7.0,87,0.00,,---,0.00,VWS V14.01,2013-01-14 18:04:00,
2013-01-14 12:05:00,32.7,28.7,30.25,NW,311,6.0,11.0,85,0.00,,---,0.00,VWS V14.01,2013-01-14 18:05:00,
2013-01-14 12:06:00,32.7,29.3,30.22,NNW,329,4.0,12.0,87,0.00,,---,0.00,VWS V14.01,2013-01-14 18:06:00,
2013-01-14 12:07:00,32.7,29.3,30.22,NE,46,3.0,5.0,87,0.00,,---,0.00,VWS V14.01,2013-01-14 18:07:00,
2013-01-14 12:09:00,32.7,29.3,30.21,NW,325,4.0,12.0,87,0.00,,---,0.00,VWS V14.01,2013-01-14 18:09:00,
2013-01-14 12:10:00,32.8,28.8,30.26,West,280,3.0,10.0,85,0.00,,---,0.00,VWS V14.01,2013-01-14 18:10:00,
2013-01-14 12:11:00,32.7,29.3,30.20,NNE,12,2.0,12.0,87,0.00,,---,0.00,VWS V14.01,2013-01-14 18:11:00,
2013-01-14 12:12:00,32.7,29.3,30.20,East,84,9.0,10.0,87,0.00,,---,0.00,VWS V14.01,2013-01-14 18:12:00,
2013-01-14 12:14:00,32.7,29.3,30.20,North,11,9.0,10.0,87,0.00,,---,0.00,VWS V14.01,2013-01-14 18:14:00,
2013-01-14 12:15:00,32.9,28.6,30.29,NW,325,1.0,10.0,84,0.00,,---,0.00,VWS V14.01,2013-01-14 18:15:00,
2013-01-14 12:16:00,32.7,29.3,30.21,NW,309,4.0,10.0,87,0.00,,---,0.00,VWS V14.01,2013-01-14 18:16:00,
2013-01-14 12:17:00,32.7,29.3,30.21,NNE,22,3.0,7.0,87,0.00,,---,0.00,VWS V14.01,2013-01-14 18:17:00,
2013-01-14 12:19:00,32.7,29.3,30.21,NNW,342,6.0,7.0,87,0.00,,---,0.00,VWS V14.01,2013-01-14 18:19:00,
2013-01-14 12:20:00,33.1,28.8,30.32,NE,54,4.0,7.0,84,0.00,,---,0.00,VWS V14.01,2013-01-14 18:20:00,
2013-01-14 12:21:00,32.7,29.3,30.22,NNE,28,5.0,7.0,87,0.00,,---,0.00,VWS V14.01,2013-01-14 18:21:00,
2013-01-14 12:23:00,32.7,29.0,30.22,NNW,330,4.0,10.0,86,0.00,,---,0.00,VWS V14.01,2013-01-14 18:23:00,
2013-01-14 12:24:00,32.7,29.0,30.22,WNW,303,1.0,10.0,86,0.00,,---,0.00,VWS V14.01,2013-01-14 18:24:00,
2013-01-14 12:25:00,33.2,28.9,30.33,West,269,7.0,11.0,84,0.00,,---,0.00,VWS V14.01,2013-01-14 18:25:00,
2013-01-14 12:26:00,32.8,29.4,30.21,NNW,344,6.0,12.0,87,0.00,,---,0.00,VWS V14.01,2013-01-14 18:26:00,
2013-01-14 12:28:00,32.8,29.1,30.20,NNW,329,9.0,10.0,86,0.00,,---,0.00,VWS V14.01,2013-01-14 18:28:00,
2013-01-14 12:29:00,32.8,29.1,30.21,NW,314,4.0,13.0,86,0.00,,---,0.00,VWS V14.01,2013-01-14 18:29:00,
2013-01-14 12:30:00,33.1,28.2,30.33,NW,311,6.0,16.0,82,0.00,,---,0.00,VWS V14.01,2013-01-14 18:30:00,
2013-01-14 12:31:00,32.7,28.7,30.21,NW,313,6.0,7.0,85,0.00,,---,0.00,VWS V14.01,2013-01-14 18:31:00,
2013-01-14 12:33:00,32.7,28.7,30.21,NNE,20,5.0,11.0,85,0.00,,---,0.00,VWS V14.01,2013-01-14 18:33:00,
2013-01-14 12:34:00,32.7,28.7,30.21,NNW,340,9.0,13.0,85,0.00,,---,0.00,VWS V14.01,2013-01-14 18:34:00,
2013-01-14 12:35:00,33.0,28.4,30.33,WNW,294,8.0,13.0,83,0.00,,---,0.00,VWS V14.01,2013-01-14 18:35:00,
2013-01-14 12:36:00,32.7,28.4,30.21,NNE,24,9.0,9.0,84,0.00,,---,0.00,VWS V14.01,2013-01-14 18:36:00,
2013-01-14 12:38:00,32.7,28.4,30.21,NNW,345,4.0,9.0,84,0.00,,---,0.00,VWS V14.01,2013-01-14 18:38:00,
2013-01-14 12:39:00,32.7,28.4,30.20,NNW,342,7.0,15.0,84,0.00,,---,0.00,VWS V14.01,2013-01-14 18:39:00,
2013-01-14 12:40:00,32.9,28.3,30.32,NW,315,7.0,14.0,83,0.00,,---,0.00,VWS V14.01,2013-01-14 18:40:00,
2013-01-14 12:41:00,32.7,28.4,30.20,NW,319,3.0,5.0,84,0.00,,---,0.00,VWS V14.01,2013-01-14 18:41:00,
2013-01-14 12:43:00,32.7,28.4,30.20,NNW,327,5.0,9.0,84,0.00,,---,0.00,VWS V14.01,2013-01-14 18:43:00,
2013-01-14 12:44:00,32.7,28.4,30.20,NNW,328,5.0,9.0,84,0.00,,---,0.00,VWS V14.01,2013-01-14 18:44:00,
2013-01-14 12:45:00,32.8,27.9,30.31,NW,325,9.0,19.0,82,0.00,,---,0.00,VWS V14.01,2013-01-14 18:45:00,
2013-01-14 12:47:00,32.8,28.5,30.20,WNW,296,3.0,5.0,84,0.00,,---,0.00,VWS V14.01,2013-01-14 18:47:00,
2013-01-14 12:48:00,32.8,28.5,30.20,NNE,29,5.0,8.0,84,0.00,,---,0.00,VWS V14.01,2013-01-14 18:48:00,
2013-01-14 12:49:00,32.8,28.5,30.20,NW,317,4.0,12.0,84,0.00,,---,0.00,VWS V14.01,2013-01-14 18:49:00,
2013-01-14 12:50:00,32.6,27.7,30.31,NW,306,10.0,16.0,82,0.00,,---,0.00,VWS V14.01,2013-01-14 18:50:00,
2013-01-14 12:52:00,32.8,28.8,30.20,WNW,299,5.0,10.0,85,0.00,,---,0.00,VWS V14.01,2013-01-14 18:52:00,
2013-01-14 12:53:00,32.8,28.5,30.21,NW,313,4.0,10.0,84,0.00,,---,0.00,VWS V14.01,2013-01-14 18:53:00,
2013-01-14 12:55:00,32.8,28.8,30.21,NW,323,10.0,10.0,85,0.00,,---,0.00,VWS V14.01,2013-01-14 18:55:00,
2013-01-14 12:57:00,32.7,28.4,30.22,WNW,303,5.0,10.0,84,0.00,,---,0.00,VWS V14.01,2013-01-14 18:57:00,
2013-01-14 12:58:00,32.7,28.4,30.23,NW,320,7.0,10.0,84,0.00,,---,0.00,VWS V14.01,2013-01-14 18:58:00,
2013-01-14 12:59:00,32.7,28.4,30.23,NW,318,3.0,10.0,84,0.00,,---,0.00,VWS V14.01,2013-01-14 18:59:00,
2013-01-14 13:00:00,32.7,28.7,30.23,NW,315,5.0,10.0,85,0.00,,---,0.00,VWS V14.01,2013-01-14 19:00:00,
2013-01-14 13:02:00,32.7,28.7,30.24,NNW,333,3.0,10.0,85,0.00,,---,0.00,VWS V14.01,2013-01-14 19:02:00,
2013-01-14 13:03:00,32.7,28.7,30.25,NW,321,3.0,10.0,85,0.00,,---,0.00,VWS V14.01,2013-01-14 19:03:00,
2013-01-14 13:04:00,32.7,28.7,30.25,NW,315,3.0,10.0,85,0.00,,---,0.00,VWS V14.01,2013-01-14 19:04:00,
2013-01-14 13:05:00,32.7,28.7,30.25,NNE,17,5.0,10.0,85,0.00,,---,0.00,VWS V14.01,2013-01-14 19:05:00,
2013-01-14 13:07:00,32.8,28.8,30.26,NNW,339,7.0,9.0,85,0.00,,---,0.00,VWS V14.01,2013-01-14 19:07:00,
2013-01-14 13:08:00,32.8,28.5,30.27,NW,307,5.0,10.0,84,0.00,,---,0.00,VWS V14.01,2013-01-14 19:08:00,
2013-01-14 13:09:00,32.8,28.5,30.27,NW,323,3.0,10.0,84,0.00,,---,0.00,VWS V14.01,2013-01-14 19:09:00,
2013-01-14 13:10:00,32.8,28.8,30.26,NW,324,3.0,10.0,85,0.00,,---,0.00,VWS V14.01,2013-01-14 19:10:00,
2013-01-14 13:12:00,32.8,28.5,30.27,NNE,15,5.0,5.0,84,0.00,,---,0.00,VWS V14.01,2013-01-14 19:12:00,
2013-01-14 13:13:00,32.8,28.5,30.28,NW,326,4.0,7.0,84,0.00,,---,0.00,VWS V14.01,2013-01-14 19:13:00,
2013-01-14 13:14:00,32.9,28.6,30.28,NNW,341,4.0,7.0,84,0.00,,---,0.00,VWS V14.01,2013-01-14 19:14:00,
2013-01-14 13:15:00,32.9,28.6,30.28,NNE,12,4.0,10.0,84,0.00,,---,0.00,VWS V14.01,2013-01-14 19:15:00,
2013-01-14 13:17:00,32.9,28.9,30.31,North,5,4.0,7.0,85,0.00,,---,0.00,VWS V14.01,2013-01-14 19:17:00,
2013-01-14 13:18:00,33.0,29.0,30.31,WNW,296,2.0,7.0,85,0.00,,---,0.00,VWS V14.01,2013-01-14 19:18:00,
2013-01-14 13:19:00,33.0,29.0,30.31,NW,311,3.0,7.0,85,0.00,,---,0.00,VWS V14.01,2013-01-14 19:19:00,
2013-01-14 13:20:00,33.1,28.8,30.32,NW,313,5.0,7.0,84,0.00,,---,0.00,VWS V14.01,2013-01-14 19:20:00,
2013-01-14 13:22:00,33.1,28.8,30.32,WNW,295,5.0,7.0,84,0.00,,---,0.00,VWS V14.01,2013-01-14 19:22:00,
2013-01-14 13:24:00,33.2,28.9,30.32,NW,325,3.0,7.0,84,0.00,,---,0.00,VWS V14.01,2013-01-14 19:24:00,
2013-01-14 13:25:00,33.2,28.9,30.33,NNW,327,8.0,9.0,84,0.00,,---,0.00,VWS V14.01,2013-01-14 19:25:00,
2013-01-14 13:27:00,33.2,28.6,30.33,NNW,340,6.0,10.0,83,0.00,,---,0.00,VWS V14.01,2013-01-14 19:27:00,
2013-01-14 13:29:00,33.2,28.6,30.33,NNE,26,5.0,10.0,83,0.00,,---,0.00,VWS V14.01,2013-01-14 19:29:00,
2013-01-14 13:30:00,32.2,28.5,30.28,North,11,16.0,17.0,86,0.00,,---,0.00,VWS V14.01,2013-01-14 19:30:00,
2013-01-14 13:31:00,33.1,28.2,30.33,NW,315,10.0,16.0,82,0.00,,---,0.00,VWS V14.01,2013-01-14 19:31:00,
2013-01-14 13:32:00,33.1,28.5,30.33,NW,325,9.0,13.0,83,0.00,,---,0.00,VWS V14.01,2013-01-14 19:32:00,
2013-01-14 13:34:00,33.0,28.4,30.33,NW,325,3.0,13.0,83,0.00,,---,0.00,VWS V14.01,2013-01-14 19:34:00,
2013-01-14 13:35:00,32.2,28.5,30.28,NNW,333,6.0,16.0,86,0.00,,---,0.00,VWS V14.01,2013-01-14 19:35:00,
2013-01-14 13:36:00,33.0,28.4,30.33,North,11,12.0,13.0,83,0.00,,---,0.00,VWS V14.01,2013-01-14 19:36:00,
2013-01-14 13:37:00,33.0,28.4,30.33,NW,320,10.0,11.0,83,0.00,,---,0.00,VWS V14.01,2013-01-14 19:37:00,
2013-01-14 13:39:00,33.0,28.1,30.33,NW,315,6.0,14.0,82,0.00,,---,0.00,VWS V14.01,2013-01-14 19:39:00,
2013-01-14 13:40:00,32.1,28.4,30.28,NW,323,10.0,14.0,86,0.00,,---,0.00,VWS V14.01,2013-01-14 19:40:00,
2013-01-14 13:41:00,32.9,28.3,30.32,NW,317,7.0,10.0,83,0.00,,---,0.00,VWS V14.01,2013-01-14 19:41:00,
2013-01-14 13:43:00,32.9,28.3,30.31,NNE,23,2.0,10.0,83,0.00,,---,0.00,VWS V14.01,2013-01-14 19:43:00,
2013-01-14 13:44:00,32.9,28.3,30.31,NW,307,5.0,16.0,83,0.00,,---,0.00,VWS V14.01,2013-01-14 19:44:00,
2013-01-14 13:45:00,32.1,28.4,30.28,NNW,339,4.0,17.0,86,0.00,,---,0.00,VWS V14.01,2013-01-14 19:45:00,
2013-01-14 13:47:00,32.7,27.8,30.31,NW,317,3.0,9.0,82,0.00,,---,0.00,VWS V14.01,2013-01-14 19:47:00,
2013-01-14 13:48:00,32.7,27.8,30.31,NW,323,6.0,13.0,82,0.00,,---,0.00,VWS V14.01,2013-01-14 19:48:00,
2013-01-14 13:49:00,32.7,27.8,30.31,NNW,333,10.0,16.0,82,0.00,,---,0.00,VWS V14.01,2013-01-14 19:49:00,
2013-01-14 13:50:00,32.1,28.4,30.29,NE,49,7.0,14.0,86,0.00,,---,0.00,VWS V14.01,2013-01-14 19:50:00,
2013-01-14 13:52:00,32.6,27.7,30.31,NNW,342,2.0,10.0,82,0.00,,---,0.00,VWS V14.01,2013-01-14 19:52:00,
2013-01-14 13:53:00,32.6,27.7,30.31,NNE,24,7.0,12.0,82,0.00,,---,0.00,VWS V14.01,2013-01-14 19:53:00,
2013-01-14 13:54:00,32.6,27.7,30.31,NNW,333,12.0,13.0,82,0.00,,---,0.00,VWS V14.01,2013-01-14 19:54:00,
2013-01-14 13:55:00,32.1,28.4,30.32,NW,320,8.0,16.0,86,0.00,,---,0.00,VWS V14.01,2013-01-14 19:55:00,
2013-01-14 13:57:00,32.5,27.6,30.30,NNW,331,5.0,13.0,82,0.00,,---,0.00,VWS V14.01,2013-01-14 19:57:00,
2013-01-14 13:58:00,32.5,27.6,30.30,NW,326,11.0,15.0,82,0.00,,---,0.00,VWS V14.01,2013-01-14 19:58:00,
2013-01-14 13:59:00,32.5,27.6,30.29,NW,313,12.0,15.0,82,0.00,,---,0.00,VWS V14.01,2013-01-14 19:59:00,
2013-01-14 14:00:00,32.0,28.0,30.33,NNW,329,0.0,15.0,85,0.00,,---,0.00,VWS V14.01,2013-01-14 20:00:00,
2013-01-14 14:02:00,32.5,27.9,30.30,NNE,15,13.0,13.0,83,0.00,,---,0.00,VWS V14.01,2013-01-14 20:02:00,
2013-01-14 14:03:00,32.5,27.9,30.30,North,360,7.0,13.0,83,0.00,,---,0.00,VWS V14.01,2013-01-14 20:03:00,
2013-01-14 14:04:00,32.5,28.2,30.30,NW,323,8.0,13.0,84,0.00,,---,0.00,VWS V14.01,2013-01-14 20:04:00,
2013-01-14 14:05:00,32.0,28.3,30.34,NNW,329,15.0,15.0,86,0.00,,---,0.00,VWS V14.01,2013-01-14 20:05:00,
2013-01-14 14:07:00,32.4,27.8,30.30,NNW,347,10.0,14.0,83,0.00,,---,0.00,VWS V14.01,2013-01-14 20:07:00,
2013-01-14 14:08:00,32.4,28.1,30.30,NW,315,5.0,14.0,84,0.00,,---,0.00,VWS V14.01,2013-01-14 20:08:00,
2013-01-14 14:09:00,32.3,28.3,30.30,NNW,331,12.0,14.0,85,0.00,,---,0.00,VWS V14.01,2013-01-14 20:09:00,
2013-01-14 14:10:00,31.8,27.8,30.35,NNW,339,3.0,15.0,85,0.00,,---,0.00,VWS V14.01,2013-01-14 20:10:00,
2013-01-14 14:12:00,32.3,28.0,30.30,WNW,290,6.0,14.0,84,0.00,,---,0.00,VWS V14.01,2013-01-14 20:12:00,
2013-01-14 14:13:00,32.3,28.0,30.30,NW,313,5.0,14.0,84,0.00,,---,0.00,VWS V14.01,2013-01-14 20:13:00,
2013-01-14 14:14:00,32.3,28.3,30.29,NNW,333,9.0,14.0,85,0.00,,---,0.00,VWS V14.01,2013-01-14 20:14:00,
2013-01-14 14:15:00,31.7,27.7,30.34,NW,310,5.0,11.0,85,0.00,,---,0.00,VWS V14.01,2013-01-14 20:15:00,
2013-01-14 14:17:00,32.2,28.2,30.29,NW,304,5.0,12.0,85,0.00,,---,0.00,VWS V14.01,2013-01-14 20:17:00,
2013-01-14 14:18:00,32.2,28.2,30.29,NW,315,9.0,13.0,85,0.00,,---,0.00,VWS V14.01,2013-01-14 20:18:00,
2013-01-14 14:19:00,32.2,28.2,30.30,NW,321,7.0,13.0,85,0.00,,---,0.00,VWS V14.01,2013-01-14 20:19:00,
2013-01-14 14:20:00,31.6,27.9,30.32,NW,315,6.0,15.0,86,0.00,,---,0.00,VWS V14.01,2013-01-14 20:20:00,
2013-01-14 14:22:00,32.2,28.2,30.29,NW,323,12.0,14.0,85,0.00,,---,0.00,VWS V14.01,2013-01-14 20:22:00,
2013-01-14 14:23:00,32.2,27.9,30.29,NW,315,10.0,15.0,84,0.00,,---,0.00,VWS V14.01,2013-01-14 20:23:00,
2013-01-14 14:24:00,32.1,27.8,30.29,NW,309,10.0,15.0,84,0.00,,---,0.00,VWS V14.01,2013-01-14 20:24:00,
2013-01-14 14:25:00,31.4,28.0,30.32,North,5,3.0,12.0,87,0.00,,---,0.00,VWS V14.01,2013-01-14 20:25:00,
2013-01-14 14:28:00,32.1,28.1,30.28,NNW,328,6.0,17.0,85,0.00,,---,0.00,VWS V14.01,2013-01-14 20:28:00,
2013-01-14 14:29:00,32.1,28.4,30.28,NW,317,5.0,17.0,86,0.00,,---,0.00,VWS V14.01,2013-01-14 20:29:00,
2013-01-14 14:30:00,32.1,28.4,30.28,NW,315,5.0,17.0,86,0.00,,---,0.00,VWS V14.01,2013-01-14 20:30:00,
2013-01-14 14:33:00,32.2,28.5,30.28,NW,313,11.0,16.0,86,0.00,,---,0.00,VWS V14.01,2013-01-14 20:33:00,
2013-01-14 14:34:00,32.2,28.5,30.28,NW,326,9.0,16.0,86,0.00,,---,0.00,VWS V14.01,2013-01-14 20:34:00,
2013-01-14 14:35:00,32.2,28.5,30.28,NW,318,8.0,16.0,86,0.00,,---,0.00,VWS V14.01,2013-01-14 20:35:00,
2013-01-14 14:38:00,32.1,28.1,30.28,NW,323,9.0,14.0,85,0.00,,---,0.00,VWS V14.01,2013-01-14 20:38:00,
2013-01-14 14:39:00,32.1,28.1,30.28,NNE,15,7.0,14.0,85,0.00,,---,0.00,VWS V14.01,2013-01-14 20:39:00,
2013-01-14 14:40:00,32.1,28.4,30.28,NNW,335,7.0,14.0,86,0.00,,---,0.00,VWS V14.01,2013-01-14 20:40:00,
2013-01-14 14:43:00,32.1,28.4,30.28,NNW,340,9.0,17.0,86,0.00,,---,0.00,VWS V14.01,2013-01-14 20:43:00,
2013-01-14 14:44:00,32.1,28.4,30.28,NW,304,9.0,17.0,86,0.00,,---,0.00,VWS V14.01,2013-01-14 20:44:00,
2013-01-14 14:45:00,32.1,28.4,30.28,WNW,303,6.0,17.0,86,0.00,,---,0.00,VWS V14.01,2013-01-14 20:45:00,
2013-01-14 14:48:00,32.1,28.7,30.28,NNE,32,7.0,11.0,87,0.00,,---,0.00,VWS V14.01,2013-01-14 20:48:00,
2013-01-14 14:49:00,32.1,28.7,30.28,NNE,15,5.0,11.0,87,0.00,,---,0.00,VWS V14.01,2013-01-14 20:49:00,
2013-01-14 14:50:00,32.1,28.4,30.28,NNW,338,12.0,13.0,86,0.00,,---,0.00,VWS V14.01,2013-01-14 20:50:00,
2013-01-14 14:54:00,32.1,28.4,30.31,NW,318,4.0,16.0,86,0.00,,---,0.00,VWS V14.01,2013-01-14 20:54:00,
2013-01-14 14:55:00,32.1,28.4,30.32,NNE,20,6.0,16.0,86,0.00,,---,0.00,VWS V14.01,2013-01-14 20:55:00,
2013-01-14 14:59:00,32.1,28.4,30.32,NNW,330,11.0,15.0,86,0.00,,---,0.00,VWS V14.01,2013-01-14 20:59:00,
2013-01-14 15:00:00,32.1,28.1,30.32,NNW,345,7.0,15.0,85,0.00,,---,0.00,VWS V14.01,2013-01-14 21:00:00,
2013-01-14 15:04:00,32.0,28.3,30.34,WNW,296,4.0,9.0,86,0.00,,---,0.00,VWS V14.01,2013-01-14 21:04:00,
2013-01-14 15:05:00,32.0,28.3,30.34,NW,320,4.0,9.0,86,0.00,,---,0.00,VWS V14.01,2013-01-14 21:05:00,
2013-01-14 15:09:00,31.9,28.2,30.34,NNE,20,9.0,15.0,86,0.00,,---,0.00,VWS V14.01,2013-01-14 21:09:00,
2013-01-14 15:10:00,31.9,27.9,30.35,NNW,337,3.0,15.0,85,0.00,,---,0.00,VWS V14.01,2013-01-14 21:10:00,
2013-01-14 15:14:00,31.8,27.8,30.35,NNW,328,2.0,11.0,85,0.00,,---,0.00,VWS V14.01,2013-01-14 21:14:00,
2013-01-14 15:15:00,31.7,28.0,30.35,NW,311,7.0,11.0,86,0.00,,---,0.00,VWS V14.01,2013-01-14 21:15:00,
2013-01-14 15:19:00,31.6,27.9,30.33,NNW,329,12.0,12.0,86,0.00,,---,0.00,VWS V14.01,2013-01-14 21:19:00,
2013-01-14 15:20:00,31.6,27.9,30.32,NW,318,4.0,15.0,86,0.00,,---,0.00,VWS V14.01,2013-01-14 21:20:00,
2013-01-14 15:24:00,31.4,27.7,30.31,NW,309,10.0,12.0,86,0.00,,---,0.00,VWS V14.01,2013-01-14 21:24:00,
2013-01-14 15:25:00,31.0,28.4,30.36,NNW,344,4.0,6.0,90,0.01,,---,0.01,VWS V14.01,2013-01-14 21:25:00,
2013-01-14 15:26:00,31.4,27.7,30.32,NNW,331,2.0,12.0,86,0.00,,---,0.00,VWS V14.01,2013-01-14 21:26:00,
2013-01-14 15:29:00,31.3,27.9,30.32,NW,323,3.0,10.0,87,0.00,,---,0.00,VWS V14.01,2013-01-14 21:29:00,
2013-01-14 15:30:00,31.3,27.9,30.32,NW,315,4.0,10.0,87,0.00,,---,0.00,VWS V14.01,2013-01-14 21:30:00,
2013-01-14 15:31:00,31.3,27.9,30.31,NNW,348,4.0,10.0,87,0.00,,---,0.00,VWS V14.01,2013-01-14 21:31:00,
2013-01-14 15:35:00,31.3,27.9,30.32,NW,323,5.0,16.0,87,0.00,,---,0.00,VWS V14.01,2013-01-14 21:35:00,
2013-01-14 15:36:00,31.3,27.9,30.32,NNW,336,4.0,16.0,87,0.00,,---,0.00,VWS V14.01,2013-01-14 21:36:00,
2013-01-14 15:40:00,31.3,27.9,30.29,NNE,27,8.0,14.0,87,0.00,,---,0.00,VWS V14.01,2013-01-14 21:40:00,
2013-01-14 15:41:00,31.3,27.9,30.29,NW,317,3.0,14.0,87,0.00,,---,0.00,VWS V14.01,2013-01-14 21:41:00,
2013-01-14 15:45:00,31.2,28.1,30.31,NNE,27,4.0,11.0,88,0.00,,---,0.00,VWS V14.01,2013-01-14 21:45:00,
2013-01-14 15:46:00,31.2,28.1,30.31,NNW,344,5.0,11.0,88,0.00,,---,0.00,VWS V14.01,2013-01-14 21:46:00,
2013-01-14 15:50:00,31.2,28.3,30.31,NW,315,5.0,7.0,89,0.00,,---,0.00,VWS V14.01,2013-01-14 21:50:00,
2013-01-14 15:51:00,31.2,28.1,30.31,NE,38,3.0,7.0,88,0.00,,---,0.00,VWS V14.01,2013-01-14 21:51:00,
2013-01-14 15:55:00,31.2,28.1,30.32,NW,317,2.0,9.0,88,0.00,,---,0.00,VWS V14.01,2013-01-14 21:55:00,
2013-01-14 15:56:00,31.2,28.3,30.32,NNW,333,1.0,9.0,89,0.00,,---,0.00,VWS V14.01,2013-01-14 21:56:00,
2013-01-14 15:57:00,31.2,28.3,30.33,NW,319,3.0,3.0,89,0.00,,---,0.00,VWS V14.01,2013-01-14 21:57:00,
2013-01-14 16:00:00,31.2,28.3,30.33,NNW,331,3.0,6.0,89,0.00,,---,0.00,VWS V14.01,2013-01-14 22:00:00,
2013-01-14 16:01:00,31.2,28.3,30.33,NNW,340,3.0,6.0,89,0.00,,---,0.00,VWS V14.01,2013-01-14 22:01:00,
2013-01-14 16:02:00,31.2,28.3,30.32,NNE,19,1.0,2.0,89,0.00,,---,0.00,VWS V14.01,2013-01-14 22:02:00,
2013-01-14 16:05:00,31.1,28.8,30.33,NE,42,0.0,5.0,91,0.01,,---,0.01,VWS V14.01,2013-01-14 22:05:00,
2013-01-14 16:06:00,31.1,28.2,30.32,NNW,327,2.0,9.0,89,0.00,,---,0.00,VWS V14.01,2013-01-14 22:06:00,
2013-01-14 16:07:00,31.1,28.2,30.33,NNW,340,4.0,7.0,89,0.00,,---,0.00,VWS V14.01,2013-01-14 22:07:00,
2013-01-14 16:10:00,31.1,28.8,30.32,NE,34,4.0,4.0,91,0.01,,---,0.01,VWS V14.01,2013-01-14 22:10:00,
2013-01-14 16:11:00,31.1,28.2,30.35,WNW,295,4.0,8.0,89,0.00,,---,0.00,VWS V14.01,2013-01-14 22:11:00,
2013-01-14 16:12:00,31.1,28.2,30.35,NNE,23,4.0,5.0,89,0.00,,---,0.00,VWS V14.01,2013-01-14 22:12:00,
2013-01-14 16:15:00,31.0,28.7,30.32,North,5,3.0,5.0,91,0.01,,---,0.01,VWS V14.01,2013-01-14 22:15:00,
2013-01-14 16:16:00,31.0,28.1,30.35,NW,310,1.0,12.0,89,0.01,,---,0.01,VWS V14.01,2013-01-14 22:16:00,
2013-01-14 16:17:00,31.0,28.1,30.35,NNW,333,6.0,6.0,89,0.01,,---,0.01,VWS V14.01,2013-01-14 22:17:00,
2013-01-14 16:20:00,31.1,28.8,30.30,NNW,342,2.0,5.0,91,0.00,,---,0.01,VWS V14.01,2013-01-14 22:20:00,
2013-01-14 16:21:00,31.0,28.1,30.34,NNW,331,5.0,10.0,89,0.01,,---,0.01,VWS V14.01,2013-01-14 22:21:00,
2013-01-14 16:22:00,31.0,28.1,30.35,NNW,333,6.0,6.0,89,0.01,,---,0.01,VWS V14.01,2013-01-14 22:22:00,
2013-01-14 16:25:00,31.1,28.8,30.30,NW,306,1.0,6.0,91,0.00,,---,0.01,VWS V14.01,2013-01-14 22:25:00,
2013-01-14 16:26:00,31.0,28.4,30.36,NNW,338,6.0,6.0,90,0.01,,---,0.01,VWS V14.01,2013-01-14 22:26:00,
2013-01-14 16:27:00,31.0,28.4,30.36,NNW,328,3.0,5.0,90,0.01,,---,0.01,VWS V14.01,2013-01-14 22:27:00,
2013-01-14 16:30:00,31.1,29.0,30.30,NE,42,1.0,5.0,92,0.00,,---,0.01,VWS V14.01,2013-01-14 22:30:00,
2013-01-14 16:31:00,31.0,28.4,30.37,NNW,344,6.0,6.0,90,0.01,,---,0.01,VWS V14.01,2013-01-14 22:31:00,
2013-01-14 16:32:00,31.1,28.5,30.37,NNE,22,3.0,4.0,90,0.01,,---,0.01,VWS V14.01,2013-01-14 22:32:00,
2013-01-14 16:35:00,31.2,28.9,30.29,NNE,24,2.0,6.0,91,0.00,,---,0.01,VWS V14.01,2013-01-14 22:35:00,
2013-01-14 16:36:00,31.1,28.5,30.36,NNW,336,2.0,7.0,90,0.01,,---,0.01,VWS V14.01,2013-01-14 22:36:00,
2013-01-14 16:37:00,31.0,28.4,30.36,NNW,344,4.0,4.0,90,0.01,,---,0.01,VWS V14.01,2013-01-14 22:37:00,
2013-01-14 16:40:00,31.2,29.1,30.29,NE,36,1.0,4.0,92,0.00,,---,0.01,VWS V14.01,2013-01-14 22:40:00,
2013-01-14 16:41:00,31.0,28.4,30.36,NW,317,0.0,5.0,90,0.01,,---,0.01,VWS V14.01,2013-01-14 22:41:00,
2013-01-14 16:42:00,31.0,28.4,30.36,NNW,344,6.0,6.0,90,0.01,,---,0.01,VWS V14.01,2013-01-14 22:42:00,
2013-01-14 16:45:00,31.3,29.2,30.29,NE,50,0.0,4.0,92,0.00,,---,0.01,VWS V14.01,2013-01-14 22:45:00,
2013-01-14 16:46:00,31.0,28.4,30.35,WNW,283,0.0,6.0,90,0.01,,---,0.01,VWS V14.01,2013-01-14 22:46:00,
2013-01-14 16:47:00,31.0,28.4,30.34,NE,42,3.0,4.0,90,0.01,,---,0.01,VWS V14.01,2013-01-14 22:47:00,
2013-01-14 16:50:00,31.3,29.2,30.30,NW,313,2.0,5.0,92,0.00,,---,0.01,VWS V14.01,2013-01-14 22:50:00,
2013-01-14 16:51:00,31.0,28.4,30.35,NW,324,1.0,2.0,90,0.01,,---,0.01,VWS V14.01,2013-01-14 22:51:00,
2013-01-14 16:52:00,31.0,28.4,30.35,NW,310,1.0,3.0,90,0.01,,---,0.01,VWS V14.01,2013-01-14 22:52:00,
2013-01-14 16:53:00,31.0,28.4,30.35,NW,313,1.0,3.0,90,0.01,,---,0.01,VWS V14.01,2013-01-14 22:53:00,
2013-01-14 16:55:00,31.4,29.4,30.30,NNW,327,0.0,6.0,92,0.00,,---,0.01,VWS V14.01,2013-01-14 22:55:00,
2013-01-14 16:56:00,31.0,28.4,30.34,NE,46,3.0,3.0,90,0.01,,---,0.01,VWS V14.01,2013-01-14 22:56:00,
2013-01-14 16:57:00,31.0,28.4,30.34,WNW,283,2.0,4.0,90,0.01,,---,0.01,VWS V14.01,2013-01-14 22:57:00,
2013-01-14 16:58:00,31.0,28.4,30.34,NNE,31,3.0,4.0,90,0.01,,---,0.01,VWS V14.01,2013-01-14 22:58:00,
2013-01-14 17:00:00,31.5,29.5,30.30,NNW,333,4.0,6.0,92,0.00,,---,0.01,VWS V14.01,2013-01-14 23:00:00,
2013-01-14 17:01:00,31.0,28.4,30.34,NW,325,1.0,2.0,90,0.01,,---,0.01,VWS V14.01,2013-01-14 23:01:00,
2013-01-14 17:02:00,31.0,28.4,30.34,NNW,338,4.0,5.0,90,0.01,,---,0.01,VWS V14.01,2013-01-14 23:02:00,
2013-01-14 17:03:00,31.0,28.4,30.34,NW,319,3.0,5.0,90,0.01,,---,0.01,VWS V14.01,2013-01-14 23:03:00,
2013-01-14 17:05:00,31.5,29.5,30.31,NNE,29,2.0,4.0,92,0.00,,---,0.01,VWS V14.01,2013-01-14 23:05:00,
2013-01-14 17:06:00,31.1,28.8,30.33,NE,40,0.0,0.0,91,0.01,,---,0.01,VWS V14.01,2013-01-14 23:06:00,
2013-01-14 17:07:00,31.1,28.8,30.32,ENE,63,1.0,1.0,91,0.01,,---,0.01,VWS V14.01,2013-01-14 23:07:00,
2013-01-14 17:08:00,31.1,28.8,30.32,NNW,337,3.0,4.0,91,0.01,,---,0.01,VWS V14.01,2013-01-14 23:08:00,
2013-01-14 17:10:00,31.6,29.5,30.30,North,351,1.0,5.0,92,0.00,,---,0.01,VWS V14.01,2013-01-14 23:10:00,
2013-01-14 17:11:00,31.1,28.8,30.32,NNW,338,3.0,4.0,91,0.01,,---,0.01,VWS V14.01,2013-01-14 23:11:00,
2013-01-14 17:12:00,31.1,28.8,30.32,NNW,340,2.0,4.0,91,0.01,,---,0.01,VWS V14.01,2013-01-14 23:12:00,
2013-01-14 17:13:00,31.1,28.8,30.32,NNE,30,1.0,4.0,91,0.01,,---,0.01,VWS V14.01,2013-01-14 23:13:00,
2013-01-14 17:15:00,31.6,29.5,30.29,NNW,342,2.0,4.0,92,0.00,,---,0.01,VWS V14.01,2013-01-14 23:15:00,
2013-01-14 17:16:00,31.1,28.8,30.32,NE,34,2.0,3.0,91,0.00,,---,0.01,VWS V14.01,2013-01-14 23:16:00,
2013-01-14 17:17:00,31.1,28.8,30.31,NNW,338,1.0,3.0,91,0.00,,---,0.01,VWS V14.01,2013-01-14 23:17:00,
2013-01-14 17:18:00,31.1,28.8,30.31,NNW,340,4.0,4.0,91,0.00,,---,0.01,VWS V14.01,2013-01-14 23:18:00,
2013-01-14 17:20:00,31.7,29.6,30.30,NNE,17,2.0,4.0,92,0.00,,---,0.01,VWS V14.01,2013-01-14 23:20:00,
2013-01-14 17:21:00,31.1,28.8,30.30,NNE,27,1.0,2.0,91,0.00,,---,0.01,VWS V14.01,2013-01-14 23:21:00,
2013-01-14 17:22:00,31.1,28.8,30.30,NE,35,4.0,6.0,91,0.00,,---,0.01,VWS V14.01,2013-01-14 23:22:00,
2013-01-14 17:23:00,31.1,28.8,30.30,NNE,18,3.0,6.0,91,0.00,,---,0.01,VWS V14.01,2013-01-14 23:23:00,
2013-01-14 17:25:00,31.8,29.8,30.31,NW,313,0.0,2.0,92,0.00,,---,0.01,VWS V14.01,2013-01-14 23:25:00,
2013-01-14 17:26:00,31.1,28.8,30.30,NE,44,1.0,1.0,91,0.00,,---,0.01,VWS V14.01,2013-01-14 23:26:00,
2013-01-14 17:28:00,31.1,29.0,30.30,NW,322,0.0,5.0,92,0.00,,---,0.01,VWS V14.01,2013-01-14 23:28:00,
2013-01-14 17:30:00,31.8,29.8,30.32,NW,321,1.0,2.0,92,0.00,,---,0.01,VWS V14.01,2013-01-14 23:30:00,
2013-01-14 17:32:00,31.1,28.8,30.30,NNW,348,4.0,4.0,91,0.00,,---,0.01,VWS V14.01,2013-01-14 23:32:00,
2013-01-14 17:33:00,31.1,28.8,30.30,NNE,13,1.0,4.0,91,0.00,,---,0.01,VWS V14.01,2013-01-14 23:33:00,
2013-01-14 17:35:00,31.8,29.8,30.31,NNW,328,1.0,4.0,92,0.00,,---,0.01,VWS V14.01,2013-01-14 23:35:00,
2013-01-14 17:37:00,31.2,28.9,30.29,NE,53,2.0,2.0,91,0.00,,---,0.01,VWS V14.01,2013-01-14 23:37:00,
2013-01-14 17:38:00,31.2,28.9,30.29,ENE,62,3.0,3.0,91,0.00,,---,0.01,VWS V14.01,2013-01-14 23:38:00,
2013-01-14 17:40:00,31.9,30.1,30.31,NW,315,1.0,3.0,93,0.00,,---,0.01,VWS V14.01,2013-01-14 23:40:00,
2013-01-14 17:42:00,31.2,29.1,30.29,NNE,30,1.0,3.0,92,0.00,,---,0.01,VWS V14.01,2013-01-14 23:42:00,
2013-01-14 17:43:00,31.2,29.1,30.30,NW,317,1.0,3.0,92,0.00,,---,0.01,VWS V14.01,2013-01-14 23:43:00,
2013-01-14 17:44:00,31.2,29.1,30.30,NNE,24,2.0,4.0,92,0.00,,---,0.01,VWS V14.01,2013-01-14 23:44:00,
2013-01-14 17:45:00,31.9,30.1,30.30,WNW,290,0.0,3.0,93,0.00,,---,0.01,VWS V14.01,2013-01-14 23:45:00,
2013-01-14 17:47:00,31.3,29.2,30.29,North,351,1.0,3.0,92,0.00,,---,0.01,VWS V14.01,2013-01-14 23:47:00,
2013-01-14 17:48:00,31.3,29.2,30.30,WNW,300,3.0,4.0,92,0.00,,---,0.01,VWS V14.01,2013-01-14 23:48:00,
2013-01-14 17:49:00,31.3,29.2,30.30,NNW,345,1.0,4.0,92,0.00,,---,0.01,VWS V14.01,2013-01-14 23:49:00,
2013-01-14 17:50:00,31.9,30.1,30.30,NNW,331,2.0,3.0,93,0.00,,---,0.01,VWS V14.01,2013-01-14 23:50:00,
2013-01-14 17:52:00,31.3,29.2,30.30,North,351,4.0,5.0,92,0.00,,---,0.01,VWS V14.01,2013-01-14 23:52:00,
2013-01-14 17:53:00,31.3,29.2,30.30,NNW,338,1.0,5.0,92,0.00,,---,0.01,VWS V14.01,2013-01-14 23:53:00,
2013-01-14 17:54:00,31.3,29.2,30.30,NNW,338,2.0,5.0,92,0.00,,---,0.01,VWS V14.01,2013-01-14 23:54:00,
2013-01-14 17:55:00,31.9,30.1,30.30,NNW,340,1.0,4.0,93,0.00,,---,0.01,VWS V14.01,2013-01-14 23:55:00,
2013-01-14 17:57:00,31.4,29.4,30.30,NNW,346,3.0,4.0,92,0.00,,---,0.01,VWS V14.01,2013-01-14 23:57:00,
2013-01-14 17:58:00,31.4,29.4,30.30,NE,39,1.0,4.0,92,0.00,,---,0.01,VWS V14.01,2013-01-14 23:58:00,
2013-01-14 17:59:00,31.4,29.4,30.29,NNW,334,1.0,4.0,92,0.00,,---,0.01,VWS V14.01,2013-01-14 23:59:00,
2013-01-14 18:00:00,32.0,30.2,30.31,NW,317,2.0,3.0,93,0.00,,---,0.01,VWS V14.01,2013-01-15 00:00:00,
2013-01-14 18:02:00,31.4,29.4,30.30,NW,325,3.0,3.0,92,0.00,,---,0.01,VWS V14.01,2013-01-15 00:02:00,
2013-01-14 18:03:00,31.4,29.4,30.30,NNW,333,2.0,3.0,92,0.00,,---,0.01,VWS V14.01,2013-01-15 00:03:00,
2013-01-14 18:04:00,31.5,29.5,30.30,NNE,32,1.0,3.0,92,0.00,,---,0.01,VWS V14.01,2013-01-15 00:04:00,
2013-01-14 18:05:00,32.0,30.2,30.30,NNW,333,2.0,3.0,93,0.00,,---,0.01,VWS V14.01,2013-01-15 00:05:00,
2013-01-14 18:07:00,31.5,29.5,30.31,NNE,15,1.0,2.0,92,0.00,,---,0.01,VWS V14.01,2013-01-15 00:07:00,
2013-01-14 18:08:00,31.6,29.5,30.30,NE,38,2.0,3.0,92,0.00,,---,0.01,VWS V14.01,2013-01-15 00:08:00,
2013-01-14 18:09:00,31.6,29.5,30.30,NE,55,3.0,3.0,92,0.00,,---,0.01,VWS V14.01,2013-01-15 00:09:00,
2013-01-14 18:10:00,32.0,30.2,30.29,NW,323,0.0,3.0,93,0.00,,---,0.01,VWS V14.01,2013-01-15 00:10:00,
2013-01-14 18:12:00,31.6,29.5,30.29,NNE,33,4.0,4.0,92,0.00,,---,0.01,VWS V14.01,2013-01-15 00:12:00,
2013-01-14 18:13:00,31.6,29.5,30.29,NW,323,2.0,4.0,92,0.00,,---,0.01,VWS V14.01,2013-01-15 00:13:00,
2013-01-14 18:14:00,31.6,29.5,30.29,NE,34,0.0,4.0,92,0.00,,---,0.01,VWS V14.01,2013-01-15 00:14:00,
2013-01-14 18:15:00,31.6,29.5,30.29,East,82,0.0,4.0,92,0.00,,---,0.01,VWS V14.01,2013-01-15 00:15:00,
2013-01-14 18:17:00,31.6,29.5,30.29,NNE,23,3.0,3.0,92,0.00,,---,0.01,VWS V14.01,2013-01-15 00:17:00,
2013-01-14 18:18:00,31.6,29.5,30.30,North,351,2.0,3.0,92,0.00,,---,0.01,VWS V14.01,2013-01-15 00:18:00,
2013-01-14 18:19:00,31.6,29.5,30.30,NW,324,2.0,3.0,92,0.00,,---,0.01,VWS V14.01,2013-01-15 00:19:00,
2013-01-14 18:20:00,31.6,29.5,30.30,NNE,22,3.0,4.0,92,0.00,,---,0.01,VWS V14.01,2013-01-15 00:20:00,
2013-01-14 18:22:00,31.7,29.6,30.30,NW,311,0.0,2.0,92,0.00,,---,0.01,VWS V14.01,2013-01-15 00:22:00,
2013-01-14 18:23:00,31.7,29.6,30.31,NE,49,0.0,2.0,92,0.00,,---,0.01,VWS V14.01,2013-01-15 00:23:00,
2013-01-14 18:24:00,31.7,29.6,30.31,NNW,328,0.0,2.0,92,0.00,,---,0.01,VWS V14.01,2013-01-15 00:24:00,
2013-01-14 18:25:00,31.8,29.8,30.31,NW,313,0.0,2.0,92,0.00,,---,0.01,VWS V14.01,2013-01-15 00:25:00,
2013-01-14 18:27:00,31.8,29.8,30.31,NNW,329,1.0,1.0,92,0.00,,---,0.01,VWS V14.01,2013-01-15 00:27:00,
2013-01-14 18:28:00,31.8,29.8,30.32,NNE,26,1.0,1.0,92,0.00,,---,0.01,VWS V14.01,2013-01-15 00:28:00,
2013-01-14 18:29:00,31.8,29.8,30.32,NNW,333,0.0,1.0,92,0.00,,---,0.01,VWS V14.01,2013-01-15 00:29:00,
2013-01-14 18:30:00,31.8,29.8,30.32,NW,321,1.0,2.0,92,0.00,,---,0.01,VWS V14.01,2013-01-15 00:30:00,
2013-01-14 18:33:00,31.8,29.8,30.32,NW,318,2.0,3.0,92,0.00,,---,0.01,VWS V14.01,2013-01-15 00:33:00,
2013-01-14 18:34:00,31.8,29.8,30.31,NW,317,3.0,4.0,92,0.00,,---,0.01,VWS V14.01,2013-01-15 00:34:00,
2013-01-14 18:35:00,31.8,29.8,30.31,NW,318,1.0,4.0,92,0.00,,---,0.01,VWS V14.01,2013-01-15 00:35:00,
2013-01-14 18:38:00,31.9,30.1,30.31,NW,326,2.0,2.0,93,0.00,,---,0.01,VWS V14.01,2013-01-15 00:38:00,
2013-01-14 18:39:00,31.9,30.1,30.31,NNW,328,0.0,3.0,93,0.00,,---,0.01,VWS V14.01,2013-01-15 00:39:00,
2013-01-14 18:40:00,31.9,30.1,30.31,NW,313,2.0,3.0,93,0.00,,---,0.01,VWS V14.01,2013-01-15 00:40:00,
2013-01-14 18:43:00,31.9,30.1,30.31,NE,42,0.0,3.0,93,0.00,,---,0.01,VWS V14.01,2013-01-15 00:43:00,
2013-01-14 18:44:00,31.9,30.1,30.31,NW,313,0.0,3.0,93,0.00,,---,0.01,VWS V14.01,2013-01-15 00:44:00,
2013-01-14 18:45:00,31.9,30.1,30.30,NW,326,2.0,3.0,93,0.00,,---,0.01,VWS V14.01,2013-01-15 00:45:00,
2013-01-14 18:48:00,31.9,30.1,30.30,NNW,338,0.0,1.0,93,0.00,,---,0.01,VWS V14.01,2013-01-15 00:48:00,
2013-01-14 18:49:00,31.9,30.1,30.30,NE,40,0.0,1.0,93,0.00,,---,0.01,VWS V14.01,2013-01-15 00:49:00,
2013-01-14 18:50:00,32.1,30.3,30.28,NW,304,4.0,5.0,93,0.01,,---,0.02,VWS V14.01,2013-01-15 00:50:00,
2013-01-14 18:51:00,31.9,30.1,30.30,NNW,343,2.0,2.0,93,0.00,,---,0.01,VWS V14.01,2013-01-15 00:51:00,
2013-01-14 18:53:00,31.9,30.1,30.30,NW,313,1.0,2.0,93,0.00,,---,0.01,VWS V14.01,2013-01-15 00:53:00,
2013-01-14 18:54:00,32.0,30.2,30.30,NW,311,2.0,4.0,93,0.00,,---,0.01,VWS V14.01,2013-01-15 00:54:00,
2013-01-14 18:55:00,32.1,30.3,30.29,NW,324,1.0,5.0,93,0.01,,---,0.02,VWS V14.01,2013-01-15 00:55:00,
2013-01-14 18:56:00,31.9,30.1,30.30,NNW,338,3.0,4.0,93,0.00,,---,0.01,VWS V14.01,2013-01-15 00:56:00,
2013-01-14 18:58:00,32.0,30.2,30.30,NNW,328,0.0,2.0,93,0.00,,---,0.01,VWS V14.01,2013-01-15 00:58:00,
2013-01-14 18:59:00,31.9,30.1,30.30,NW,306,2.0,2.0,93,0.00,,---,0.01,VWS V14.01,2013-01-15 00:59:00,
2013-01-14 19:00:00,32.1,30.3,30.27,NW,324,3.0,6.0,93,0.01,,---,0.02,VWS V14.01,2013-01-15 01:00:00,
2013-01-14 19:01:00,32.0,30.2,30.31,WNW,302,1.0,3.0,93,0.00,,---,0.01,VWS V14.01,2013-01-15 01:01:00,
2013-01-14 19:03:00,32.0,30.2,30.30,WNW,294,3.0,3.0,93,0.00,,---,0.01,VWS V14.01,2013-01-15 01:03:00,
2013-01-14 19:04:00,32.0,30.2,30.30,North,5,3.0,3.0,93,0.00,,---,0.01,VWS V14.01,2013-01-15 01:04:00,
2013-01-14 19:05:00,32.2,30.4,30.26,NNE,15,0.0,4.0,93,0.01,,---,0.02,VWS V14.01,2013-01-15 01:05:00,
2013-01-14 19:06:00,32.0,30.2,30.30,NNE,32,1.0,3.0,93,0.00,,---,0.01,VWS V14.01,2013-01-15 01:06:00,
2013-01-14 19:08:00,32.0,30.2,30.30,WNW,303,2.0,3.0,93,0.00,,---,0.01,VWS V14.01,2013-01-15 01:08:00,
2013-01-14 19:09:00,32.0,30.2,30.30,NNW,329,1.0,3.0,93,0.00,,---,0.01,VWS V14.01,2013-01-15 01:09:00,
2013-01-14 19:10:00,32.1,30.3,30.25,NW,313,2.0,5.0,93,0.01,,---,0.02,VWS V14.01,2013-01-15 01:10:00,
2013-01-14 19:11:00,32.0,30.2,30.29,NNW,331,0.0,3.0,93,0.00,,---,0.01,VWS V14.01,2013-01-15 01:11:00,
2013-01-14 19:13:00,32.0,30.2,30.30,NW,326,3.0,3.0,93,0.00,,---,0.01,VWS V14.01,2013-01-15 01:13:00,
2013-01-14 19:14:00,32.0,30.2,30.30,NNE,24,2.0,5.0,93,0.00,,---,0.01,VWS V14.01,2013-01-15 01:14:00,
2013-01-14 19:15:00,32.2,30.4,30.26,NNW,336,3.0,4.0,93,0.01,,---,0.02,VWS V14.01,2013-01-15 01:15:00,
2013-01-14 19:16:00,32.0,30.2,30.30,NNW,340,1.0,5.0,93,0.00,,---,0.01,VWS V14.01,2013-01-15 01:16:00,
2013-01-14 19:18:00,32.0,30.2,30.29,NNE,32,0.0,4.0,93,0.00,,---,0.01,VWS V14.01,2013-01-15 01:18:00,
2013-01-14 19:19:00,32.0,30.2,30.29,NW,323,1.0,4.0,93,0.00,,---,0.01,VWS V14.01,2013-01-15 01:19:00,
2013-01-14 19:20:00,32.0,30.2,30.29,NW,304,1.0,4.0,93,0.00,,---,0.01,VWS V14.01,2013-01-15 01:20:00,
2013-01-14 19:21:00,32.0,30.2,30.29,NNW,343,2.0,4.0,93,0.00,,---,0.01,VWS V14.01,2013-01-15 01:21:00,
2013-01-14 19:23:00,32.0,30.2,30.29,NW,322,1.0,4.0,93,0.00,,---,0.01,VWS V14.01,2013-01-15 01:23:00,
2013-01-14 19:24:00,32.0,30.2,30.30,NW,304,2.0,4.0,93,0.00,,---,0.01,VWS V14.01,2013-01-15 01:24:00,
2013-01-14 19:25:00,32.0,30.2,30.30,NNE,15,3.0,4.0,93,0.00,,---,0.01,VWS V14.01,2013-01-15 01:25:00,
2013-01-14 19:26:00,32.0,30.2,30.30,WNW,302,2.0,3.0,93,0.00,,---,0.01,VWS V14.01,2013-01-15 01:26:00,
2013-01-14 19:29:00,32.0,30.2,30.30,NNW,331,1.0,3.0,93,0.00,,---,0.01,VWS V14.01,2013-01-15 01:29:00,
2013-01-14 19:30:00,32.1,30.3,30.30,NW,323,3.0,5.0,93,0.00,,---,0.01,VWS V14.01,2013-01-15 01:30:00,
2013-01-14 19:31:00,32.1,30.3,30.30,NW,311,2.0,3.0,93,0.00,,---,0.01,VWS V14.01,2013-01-15 01:31:00,
2013-01-14 19:34:00,32.0,30.2,30.29,NNW,340,0.0,3.0,93,0.00,,---,0.01,VWS V14.01,2013-01-15 01:34:00,
2013-01-14 19:35:00,32.1,30.3,30.29,NNE,27,1.0,3.0,93,0.00,,---,0.01,VWS V14.01,2013-01-15 01:35:00,
2013-01-14 19:36:00,32.1,30.3,30.29,NW,323,0.0,2.0,93,0.00,,---,0.01,VWS V14.01,2013-01-15 01:36:00,
2013-01-14 19:39:00,32.1,30.3,30.28,NNW,346,1.0,4.0,93,0.00,,---,0.01,VWS V14.01,2013-01-15 01:39:00,
2013-01-14 19:40:00,32.1,30.3,30.28,NW,319,0.0,4.0,93,0.00,,---,0.01,VWS V14.01,2013-01-15 01:40:00,
2013-01-14 19:42:00,32.1,30.3,30.27,NNE,32,2.0,3.0,93,0.00,,---,0.01,VWS V14.01,2013-01-15 01:42:00,
2013-01-14 19:44:00,32.0,30.2,30.27,NNW,328,0.0,5.0,93,0.00,,---,0.01,VWS V14.01,2013-01-15 01:44:00,
2013-01-14 19:45:00,32.0,30.2,30.27,NNW,331,0.0,5.0,93,0.00,,---,0.01,VWS V14.01,2013-01-15 01:45:00,
2013-01-14 19:47:00,32.0,30.2,30.26,NW,323,1.0,2.0,93,0.00,,---,0.01,VWS V14.01,2013-01-15 01:47:00,
2013-01-14 19:50:00,32.1,30.3,30.27,NNE,23,1.0,5.0,93,0.00,,---,0.01,VWS V14.01,2013-01-15 01:50:00,
2013-01-14 19:52:00,32.1,30.3,30.28,NW,313,4.0,5.0,93,0.01,,---,0.02,VWS V14.01,2013-01-15 01:52:00,
2013-01-14 19:55:00,32.1,30.3,30.29,NNW,342,3.0,5.0,93,0.01,,---,0.02,VWS V14.01,2013-01-15 01:55:00,
2013-01-14 19:57:00,32.1,30.3,30.29,NNW,348,2.0,2.0,93,0.01,,---,0.02,VWS V14.01,2013-01-15 01:57:00,
2013-01-14 20:00:00,32.1,30.3,30.27,NNW,337,2.0,6.0,93,0.01,,---,0.02,VWS V14.01,2013-01-15 02:00:00,
2013-01-14 20:02:00,32.1,30.3,30.27,NW,313,1.0,3.0,93,0.01,,---,0.02,VWS V14.01,2013-01-15 02:02:00,
2013-01-14 20:05:00,32.2,30.4,30.27,NE,44,2.0,3.0,93,0.01,,---,0.02,VWS V14.01,2013-01-15 02:05:00,
2013-01-14 20:07:00,32.2,30.4,30.26,North,355,2.0,4.0,93,0.01,,---,0.02,VWS V14.01,2013-01-15 02:07:00,
2013-01-14 20:10:00,32.1,30.3,30.25,NE,44,3.0,5.0,93,0.01,,---,0.02,VWS V14.01,2013-01-15 02:10:00,
2013-01-14 20:12:00,32.1,30.3,30.25,North,350,2.0,4.0,93,0.01,,---,0.02,VWS V14.01,2013-01-15 02:12:00,
2013-01-14 20:15:00,32.1,30.3,30.25,NNW,347,2.0,4.0,93,0.01,,---,0.02,VWS V14.01,2013-01-15 02:15:00,
2013-01-14 20:17:00,32.2,30.4,30.26,NNW,331,4.0,5.0,93,0.01,,---,0.02,VWS V14.01,2013-01-15 02:17:00,
2013-01-14 20:20:00,32.2,30.4,30.26,NNW,335,3.0,5.0,93,0.01,,---,0.02,VWS V14.01,2013-01-15 02:20:00,
2013-01-14 20:22:00,32.2,30.4,30.26,NW,326,2.0,3.0,93,0.01,,---,0.02,VWS V14.01,2013-01-15 02:22:00,
2013-01-14 20:25:00,32.2,30.4,30.25,NW,306,0.0,7.0,93,0.01,,---,0.02,VWS V14.01,2013-01-15 02:25:00,
2013-01-14 20:26:00,32.2,30.4,30.25,NW,314,0.0,7.0,93,0.01,,---,0.02,VWS V14.01,2013-01-15 02:26:00,
2013-01-14 20:27:00,32.2,30.4,30.25,NNW,337,1.0,1.0,93,0.01,,---,0.02,VWS V14.01,2013-01-15 02:27:00,
2013-01-14 20:30:00,32.1,30.3,30.27,NNW,329,1.0,5.0,93,0.01,,---,0.02,VWS V14.01,2013-01-15 02:30:00,
2013-01-14 20:31:00,32.1,30.3,30.28,NW,325,2.0,5.0,93,0.01,,---,0.02,VWS V14.01,2013-01-15 02:31:00,
2013-01-14 20:32:00,32.1,30.3,30.29,NW,325,2.0,2.0,93,0.01,,---,0.02,VWS V14.01,2013-01-15 02:32:00,
2013-01-14 20:35:00,32.2,30.4,30.28,NW,310,2.0,5.0,93,0.01,,---,0.02,VWS V14.01,2013-01-15 02:35:00,
2013-01-14 20:36:00,32.2,30.4,30.28,NNW,329,1.0,5.0,93,0.01,,---,0.02,VWS V14.01,2013-01-15 02:36:00,
2013-01-14 20:37:00,32.2,30.4,30.26,NNE,26,3.0,4.0,93,0.01,,---,0.02,VWS V14.01,2013-01-15 02:37:00,
2013-01-14 20:40:00,32.1,30.3,30.24,NE,53,3.0,7.0,93,0.01,,---,0.02,VWS V14.01,2013-01-15 02:40:00,
2013-01-14 20:41:00,32.1,30.3,30.24,NE,40,7.0,7.0,93,0.01,,---,0.02,VWS V14.01,2013-01-15 02:41:00,
2013-01-14 20:42:00,32.1,30.3,30.24,NW,311,2.0,6.0,93,0.01,,---,0.02,VWS V14.01,2013-01-15 02:42:00,
2013-01-14 20:45:00,32.1,30.3,30.26,NNW,344,3.0,6.0,93,0.01,,---,0.02,VWS V14.01,2013-01-15 02:45:00,
2013-01-14 20:46:00,32.1,30.3,30.26,NW,311,3.0,6.0,93,0.01,,---,0.02,VWS V14.01,2013-01-15 02:46:00,
2013-01-14 20:47:00,32.1,30.6,30.26,NW,317,3.0,5.0,94,0.01,,---,0.02,VWS V14.01,2013-01-15 02:47:00,
2013-01-14 20:50:00,32.1,30.3,30.26,NNE,26,3.0,5.0,93,0.01,,---,0.02,VWS V14.01,2013-01-15 02:50:00,
2013-01-14 20:51:00,32.1,30.3,30.26,NNE,32,1.0,5.0,93,0.01,,---,0.02,VWS V14.01,2013-01-15 02:51:00,
2013-01-14 20:52:00,32.1,30.3,30.26,NW,315,3.0,4.0,93,0.00,,---,0.02,VWS V14.01,2013-01-15 02:52:00,
2013-01-14 20:55:00,32.1,30.3,30.24,NNW,338,2.0,4.0,93,0.00,,---,0.02,VWS V14.01,2013-01-15 02:55:00,
2013-01-14 20:56:00,32.1,30.3,30.26,NNW,344,2.0,4.0,93,0.00,,---,0.02,VWS V14.01,2013-01-15 02:56:00,
2013-01-14 20:58:00,32.1,30.3,30.26,NW,312,0.0,2.0,93,0.00,,---,0.02,VWS V14.01,2013-01-15 02:58:00,
2013-01-14 21:00:00,32.1,30.3,30.23,NW,313,2.0,5.0,93,0.00,,---,0.02,VWS V14.01,2013-01-15 03:00:00,
2013-01-14 21:01:00,32.1,30.3,30.25,NNW,336,5.0,8.0,93,0.00,,---,0.02,VWS V14.01,2013-01-15 03:01:00,
2013-01-14 21:03:00,32.1,30.3,30.25,NNW,340,2.0,3.0,93,0.00,,---,0.02,VWS V14.01,2013-01-15 03:03:00,
2013-01-14 21:05:00,32.1,30.3,30.23,NNW,330,6.0,6.0,93,0.00,,---,0.02,VWS V14.01,2013-01-15 03:05:00,
2013-01-14 21:06:00,32.1,30.3,30.25,NW,315,1.0,4.0,93,0.00,,---,0.02,VWS V14.01,2013-01-15 03:06:00,
2013-01-14 21:08:00,32.1,30.3,30.24,NNE,20,3.0,4.0,93,0.00,,---,0.02,VWS V14.01,2013-01-15 03:08:00,
2013-01-14 21:10:00,32.1,30.3,30.24,NNW,344,3.0,8.0,93,0.00,,---,0.02,VWS V14.01,2013-01-15 03:10:00,
2013-01-14 21:11:00,32.1,30.3,30.24,NW,313,3.0,5.0,93,0.00,,---,0.02,VWS V14.01,2013-01-15 03:11:00,
2013-01-14 21:13:00,32.1,30.3,30.25,NNW,344,2.0,3.0,93,0.00,,---,0.02,VWS V14.01,2013-01-15 03:13:00,
2013-01-14 21:15:00,32.1,30.3,30.24,NNE,15,5.0,6.0,93,0.00,,---,0.02,VWS V14.01,2013-01-15 03:15:00,
2013-01-14 21:16:00,32.1,30.3,30.25,NW,311,0.0,5.0,93,0.00,,---,0.02,VWS V14.01,2013-01-15 03:16:00,
2013-01-14 21:18:00,32.1,30.3,30.25,NE,49,0.0,3.0,93,0.00,,---,0.02,VWS V14.01,2013-01-15 03:18:00,
2013-01-14 21:20:00,32.1,30.3,30.23,NNW,333,2.0,5.0,93,0.00,,---,0.02,VWS V14.01,2013-01-15 03:20:00,
2013-01-14 21:21:00,32.1,30.3,30.25,NW,309,4.0,4.0,93,0.00,,---,0.02,VWS V14.01,2013-01-15 03:21:00,
2013-01-14 21:22:00,32.1,30.3,30.25,North,350,2.0,4.0,93,0.00,,---,0.02,VWS V14.01,2013-01-15 03:22:00,
2013-01-14 21:23:00,32.1,30.3,30.25,NW,321,3.0,5.0,93,0.00,,---,0.02,VWS V14.01,2013-01-15 03:23:00,
2013-01-14 21:25:00,32.0,30.2,30.23,NNW,333,0.0,5.0,93,0.00,,---,0.02,VWS V14.01,2013-01-15 03:25:00,
2013-01-14 21:26:00,32.2,30.4,30.25,NW,317,4.0,6.0,93,0.00,,---,0.02,VWS V14.01,2013-01-15 03:26:00,
2013-01-14 21:27:00,32.2,30.4,30.25,NNW,328,3.0,4.0,93,0.00,,---,0.02,VWS V14.01,2013-01-15 03:27:00,
2013-01-14 21:28:00,32.2,30.4,30.25,NNW,348,3.0,5.0,93,0.00,,---,0.02,VWS V14.01,2013-01-15 03:28:00,
2013-01-14 21:30:00,32.0,30.2,30.23,NW,319,0.0,6.0,93,0.00,,---,0.02,VWS V14.01,2013-01-15 03:30:00,
2013-01-14 21:31:00,32.1,30.3,30.25,NNE,26,1.0,5.0,93,0.00,,---,0.02,VWS V14.01,2013-01-15 03:31:00,
2013-01-14 21:32:00,32.2,30.4,30.25,NE,42,2.0,3.0,93,0.00,,---,0.02,VWS V14.01,2013-01-15 03:32:00,
2013-01-14 21:33:00,32.1,30.3,30.25,NW,326,0.0,3.0,93,0.00,,---,0.02,VWS V14.01,2013-01-15 03:33:00,
2013-01-14 21:35:00,32.1,30.3,30.22,NNW,340,3.0,4.0,93,0.00,,---,0.02,VWS V14.01,2013-01-15 03:35:00,
2013-01-14 21:36:00,32.2,30.4,30.24,NNW,344,4.0,5.0,93,0.00,,---,0.02,VWS V14.01,2013-01-15 03:36:00,
2013-01-14 21:37:00,32.2,30.4,30.24,NW,317,1.0,4.0,93,0.00,,---,0.02,VWS V14.01,2013-01-15 03:37:00,
2013-01-14 21:38:00,32.2,30.4,30.25,NNW,340,3.0,4.0,93,0.00,,---,0.02,VWS V14.01,2013-01-15 03:38:00,
2013-01-14 21:40:00,32.0,30.2,30.23,North,360,1.0,6.0,93,0.00,,---,0.02,VWS V14.01,2013-01-15 03:40:00,
2013-01-14 21:41:00,32.2,30.4,30.25,NW,318,2.0,5.0,93,0.00,,---,0.02,VWS V14.01,2013-01-15 03:41:00,
2013-01-14 21:42:00,32.2,30.4,30.25,NW,326,4.0,5.0,93,0.00,,---,0.02,VWS V14.01,2013-01-15 03:42:00,
2013-01-14 21:44:00,32.1,30.3,30.25,NW,313,2.0,7.0,93,0.00,,---,0.02,VWS V14.01,2013-01-15 03:44:00,
2013-01-14 21:45:00,32.0,30.2,30.23,NW,320,6.0,7.0,93,0.00,,---,0.02,VWS V14.01,2013-01-15 03:45:00,
2013-01-14 21:46:00,32.1,30.3,30.24,NW,317,2.0,7.0,93,0.00,,---,0.02,VWS V14.01,2013-01-15 03:46:00,
2013-01-14 21:47:00,32.2,30.4,30.24,NW,322,2.0,3.0,93,0.00,,---,0.02,VWS V14.01,2013-01-15 03:47:00,
2013-01-14 21:49:00,32.1,30.3,30.23,NE,42,4.0,5.0,93,0.00,,---,0.02,VWS V14.01,2013-01-15 03:49:00,
2013-01-14 21:50:00,32.0,30.2,30.23,WNW,302,5.0,7.0,93,0.00,,---,0.02,VWS V14.01,2013-01-15 03:50:00,
2013-01-14 21:51:00,32.1,30.3,30.23,NNE,32,1.0,5.0,93,0.00,,---,0.02,VWS V14.01,2013-01-15 03:51:00,
2013-01-14 21:52:00,32.2,30.7,30.24,NW,314,0.0,1.0,94,0.00,,---,0.02,VWS V14.01,2013-01-15 03:52:00,
2013-01-14 21:54:00,32.2,30.4,30.24,NW,323,4.0,4.0,93,0.00,,---,0.02,VWS V14.01,2013-01-15 03:54:00,
2013-01-14 21:55:00,32.0,30.2,30.23,NNW,347,2.0,7.0,93,0.00,,---,0.02,VWS V14.01,2013-01-15 03:55:00,
2013-01-14 21:56:00,32.1,30.3,30.24,NNW,338,2.0,4.0,93,0.00,,---,0.02,VWS V14.01,2013-01-15 03:56:00,
2013-01-14 21:57:00,32.1,30.3,30.24,NNW,344,2.0,5.0,93,0.00,,---,0.02,VWS V14.01,2013-01-15 03:57:00,
2013-01-14 21:59:00,32.1,30.3,30.24,NNW,331,2.0,5.0,93,0.00,,---,0.02,VWS V14.01,2013-01-15 03:59:00,
2013-01-14 22:00:00,32.0,30.2,30.23,NNW,337,0.0,6.0,93,0.00,,---,0.02,VWS V14.01,2013-01-15 04:00:00,
2013-01-14 22:01:00,32.1,30.3,30.23,NW,313,2.0,5.0,93,0.00,,---,0.02,VWS V14.01,2013-01-15 04:01:00,
2013-01-14 22:02:00,32.1,30.3,30.23,West,279,1.0,4.0,93,0.00,,---,0.02,VWS V14.01,2013-01-15 04:02:00,
2013-01-14 22:04:00,32.1,30.3,30.23,NW,321,2.0,6.0,93,0.00,,---,0.02,VWS V14.01,2013-01-15 04:04:00,
2013-01-14 22:05:00,32.0,30.2,30.22,NNE,20,5.0,7.0,93,0.00,,---,0.02,VWS V14.01,2013-01-15 04:05:00,
2013-01-14 22:06:00,32.1,30.3,30.23,NNE,12,7.0,7.0,93,0.00,,---,0.02,VWS V14.01,2013-01-15 04:06:00,
2013-01-14 22:07:00,32.1,30.3,30.23,NW,317,1.0,7.0,93,0.00,,---,0.02,VWS V14.01,2013-01-15 04:07:00,
2013-01-14 22:09:00,32.1,30.3,30.23,NNW,338,4.0,7.0,93,0.00,,---,0.02,VWS V14.01,2013-01-15 04:09:00,
2013-01-14 22:10:00,31.9,30.1,30.22,NW,317,2.0,9.0,93,0.00,,---,0.02,VWS V14.01,2013-01-15 04:10:00,
2013-01-14 22:11:00,32.1,30.3,30.24,NNE,12,6.0,6.0,93,0.00,,---,0.02,VWS V14.01,2013-01-15 04:11:00,
2013-01-14 22:12:00,32.1,30.3,30.24,NNE,24,4.0,6.0,93,0.00,,---,0.02,VWS V14.01,2013-01-15 04:12:00,
2013-01-14 22:14:00,32.1,30.3,30.23,SE,136,0.0,6.0,93,0.00,,---,0.02,VWS V14.01,2013-01-15 04:14:00,
2013-01-14 22:15:00,31.9,30.1,30.21,NW,304,1.0,6.0,93,0.00,,---,0.02,VWS V14.01,2013-01-15 04:15:00,
2013-01-14 22:16:00,32.1,30.3,30.24,NNW,337,4.0,5.0,93,0.00,,---,0.02,VWS V14.01,2013-01-15 04:16:00,
2013-01-14 22:17:00,32.1,30.3,30.24,NNW,342,3.0,5.0,93,0.00,,---,0.02,VWS V14.01,2013-01-15 04:17:00,
2013-01-14 22:19:00,32.1,30.3,30.23,NE,35,3.0,5.0,93,0.00,,---,0.02,VWS V14.01,2013-01-15 04:19:00,
2013-01-14 22:20:00,31.9,30.1,30.21,WNW,286,3.0,7.0,93,0.00,,---,0.02,VWS V14.01,2013-01-15 04:20:00,
2013-01-14 22:21:00,32.0,30.2,30.23,NNW,333,2.0,2.0,93,0.00,,---,0.02,VWS V14.01,2013-01-15 04:21:00,
2013-01-14 22:22:00,32.0,30.2,30.23,WNW,299,2.0,2.0,93,0.00,,---,0.02,VWS V14.01,2013-01-15 04:22:00,
2013-01-14 22:24:00,32.1,30.3,30.23,NNE,29,2.0,5.0,93,0.00,,---,0.02,VWS V14.01,2013-01-15 04:24:00,
2013-01-14 22:25:00,31.9,30.1,30.22,NE,36,6.0,9.0,93,0.00,,---,0.02,VWS V14.01,2013-01-15 04:25:00,
2013-01-14 22:26:00,32.0,30.2,30.23,NNW,333,1.0,1.0,93,0.00,,---,0.02,VWS V14.01,2013-01-15 04:26:00,
2013-01-14 22:27:00,32.1,30.3,30.23,NNW,329,4.0,6.0,93,0.00,,---,0.02,VWS V14.01,2013-01-15 04:27:00,
2013-01-14 22:28:00,32.0,30.2,30.23,NNW,345,3.0,6.0,93,0.00,,---,0.02,VWS V14.01,2013-01-15 04:28:00,
2013-01-14 22:30:00,32.0,30.2,30.23,NW,311,0.0,6.0,93,0.00,,---,0.02,VWS V14.01,2013-01-15 04:30:00,
2013-01-14 22:31:00,32.0,30.2,30.22,NNE,17,1.0,1.0,93,0.00,,---,0.02,VWS V14.01,2013-01-15 04:31:00,
2013-01-14 22:32:00,32.1,30.3,30.22,NNW,340,1.0,1.0,93,0.00,,---,0.02,VWS V14.01,2013-01-15 04:32:00,
2013-01-14 22:33:00,32.1,30.3,30.22,NNW,330,4.0,4.0,93,0.00,,---,0.02,VWS V14.01,2013-01-15 04:33:00,
2013-01-14 22:35:00,32.1,30.3,30.22,NNE,17,3.0,4.0,93,0.00,,---,0.02,VWS V14.01,2013-01-15 04:35:00,
2013-01-14 22:36:00,32.0,30.2,30.23,NW,320,4.0,6.0,93,0.00,,---,0.02,VWS V14.01,2013-01-15 04:36:00,
2013-01-14 22:37:00,32.1,30.3,30.23,NNE,20,2.0,6.0,93,0.00,,---,0.02,VWS V14.01,2013-01-15 04:37:00,
2013-01-14 22:38:00,32.1,30.3,30.23,NNW,330,2.0,6.0,93,0.00,,---,0.02,VWS V14.01,2013-01-15 04:38:00,
2013-01-14 22:40:00,32.0,30.2,30.23,NNE,13,2.0,6.0,93,0.00,,---,0.02,VWS V14.01,2013-01-15 04:40:00,
2013-01-14 22:41:00,32.0,30.2,30.23,North,5,1.0,1.0,93,0.00,,---,0.02,VWS V14.01,2013-01-15 04:41:00,
2013-01-14 22:42:00,32.0,30.2,30.23,NW,310,5.0,5.0,93,0.00,,---,0.02,VWS V14.01,2013-01-15 04:42:00,
2013-01-14 22:43:00,32.0,30.2,30.23,NW,307,2.0,5.0,93,0.00,,---,0.02,VWS V14.01,2013-01-15 04:43:00,
2013-01-14 22:45:00,32.0,30.2,30.23,NW,310,4.0,5.0,93,0.00,,---,0.02,VWS V14.01,2013-01-15 04:45:00,
2013-01-14 22:47:00,32.0,30.2,30.23,NNW,331,3.0,7.0,93,0.00,,---,0.02,VWS V14.01,2013-01-15 04:47:00,
2013-01-14 22:48:00,32.0,30.2,30.23,NW,310,2.0,7.0,93,0.00,,---,0.02,VWS V14.01,2013-01-15 04:48:00,
2013-01-14 22:50:00,32.0,30.2,30.23,NW,326,2.0,7.0,93,0.00,,---,0.02,VWS V14.01,2013-01-15 04:50:00,
2013-01-14 22:52:00,32.0,30.2,30.23,NW,310,5.0,5.0,93,0.00,,---,0.02,VWS V14.01,2013-01-15 04:52:00,
2013-01-14 22:53:00,32.0,30.2,30.23,NW,304,5.0,7.0,93,0.00,,---,0.02,VWS V14.01,2013-01-15 04:53:00,
2013-01-14 22:55:00,32.0,30.2,30.23,NNE,23,4.0,7.0,93,0.00,,---,0.02,VWS V14.01,2013-01-15 04:55:00,
2013-01-14 22:57:00,32.0,30.2,30.23,NNW,329,2.0,3.0,93,0.00,,---,0.02,VWS V14.01,2013-01-15 04:57:00,
2013-01-14 22:58:00,32.0,30.2,30.23,NW,313,2.0,5.0,93,0.00,,---,0.02,VWS V14.01,2013-01-15 04:58:00,
2013-01-14 23:00:00,32.0,30.2,30.23,NW,326,4.0,6.0,93,0.00,,---,0.02,VWS V14.01,2013-01-15 05:00:00,
2013-01-14 23:01:00,31.9,30.1,30.23,NW,317,2.0,6.0,93,0.00,,---,0.02,VWS V14.01,2013-01-15 05:01:00,
2013-01-14 23:05:00,32.0,30.2,30.22,South,190,3.0,4.0,93,0.00,,---,0.02,VWS V14.01,2013-01-15 05:05:00,
2013-01-14 23:06:00,32.0,30.2,30.22,South,190,6.0,6.0,93,0.00,,---,0.02,VWS V14.01,2013-01-15 05:06:00,
2013-01-14 23:10:00,32.0,30.2,30.22,NW,320,6.0,9.0,93,0.00,,---,0.02,VWS V14.01,2013-01-15 05:10:00,
2013-01-14 23:11:00,31.9,30.1,30.22,NW,310,4.0,9.0,93,0.00,,---,0.02,VWS V14.01,2013-01-15 05:11:00,
2013-01-14 23:15:00,32.0,30.2,30.21,NNW,331,1.0,6.0,93,0.00,,---,0.02,VWS V14.01,2013-01-15 05:15:00,
2013-01-14 23:16:00,32.0,30.2,30.21,NE,53,2.0,6.0,93,0.00,,---,0.02,VWS V14.01,2013-01-15 05:16:00,
2013-01-14 23:20:00,32.0,30.2,30.21,NNE,24,2.0,6.0,93,0.00,,---,0.00,VWS V14.01,2013-01-15 05:20:00,
2013-01-14 23:21:00,32.0,30.2,30.21,NNW,331,3.0,7.0,93,0.00,,---,0.02,VWS V14.01,2013-01-15 05:21:00,
2013-01-14 23:25:00,31.9,30.1,30.21,NNW,333,0.0,5.0,93,0.00,,---,0.00,VWS V14.01,2013-01-15 05:25:00,
2013-01-14 23:26:00,31.9,30.1,30.22,NNE,26,5.0,9.0,93,0.00,,---,0.02,VWS V14.01,2013-01-15 05:26:00,
2013-01-14 23:27:00,31.9,30.1,30.22,North,5,2.0,6.0,93,0.00,,---,0.02,VWS V14.01,2013-01-15 05:27:00,
2013-01-14 23:30:00,32.0,30.2,30.21,North,355,3.0,6.0,93,0.00,,---,0.00,VWS V14.01,2013-01-15 05:30:00,
2013-01-14 23:31:00,31.9,30.1,30.21,WNW,303,2.0,6.0,93,0.00,,---,0.02,VWS V14.01,2013-01-15 05:31:00,
2013-01-14 23:32:00,31.9,30.1,30.21,NE,35,4.0,6.0,93,0.00,,---,0.02,VWS V14.01,2013-01-15 05:32:00,
2013-01-14 23:35:00,32.0,30.2,30.22,NNW,328,2.0,6.0,93,0.00,,---,0.00,VWS V14.01,2013-01-15 05:35:00,
2013-01-14 23:36:00,31.9,30.1,30.21,NNE,32,2.0,6.0,93,0.00,,---,0.02,VWS V14.01,2013-01-15 05:36:00,
2013-01-14 23:37:00,31.9,30.1,30.21,NW,304,1.0,5.0,93,0.00,,---,0.02,VWS V14.01,2013-01-15 05:37:00,
2013-01-14 23:40:00,32.0,30.2,30.23,NW,323,0.0,8.0,93,0.00,,---,0.00,VWS V14.01,2013-01-15 05:40:00,
2013-01-14 23:41:00,31.9,30.1,30.21,NNE,13,3.0,7.0,93,0.00,,---,0.02,VWS V14.01,2013-01-15 05:41:00,
2013-01-14 23:42:00,32.0,30.2,30.21,NNW,333,2.0,3.0,93,0.00,,---,0.02,VWS V14.01,2013-01-15 05:42:00,
2013-01-14 23:45:00,32.0,30.5,30.23,North,351,2.0,7.0,94,0.00,,---,0.00,VWS V14.01,2013-01-15 05:45:00,
2013-01-14 23:46:00,32.0,30.2,30.22,NW,311,3.0,4.0,93,0.00,,---,0.02,VWS V14.01,2013-01-15 05:46:00,
2013-01-14 23:47:00,32.0,30.2,30.22,NW,317,4.0,4.0,93,0.00,,---,0.02,VWS V14.01,2013-01-15 05:47:00,
2013-01-14 23:50:00,32.0,30.5,30.23,WNW,295,3.0,6.0,94,0.00,,---,0.00,VWS V14.01,2013-01-15 05:50:00,
2013-01-14 23:51:00,31.9,30.1,30.22,NW,325,3.0,6.0,93,0.00,,---,0.02,VWS V14.01,2013-01-15 05:51:00,
2013-01-14 23:52:00,31.9,30.1,30.22,NNW,331,4.0,5.0,93,0.00,,---,0.02,VWS V14.01,2013-01-15 05:52:00,
2013-01-14 23:55:00,32.0,30.5,30.23,NNW,336,5.0,9.0,94,0.00,,---,0.00,VWS V14.01,2013-01-15 05:55:00,
2013-01-14 23:56:00,31.9,30.1,30.21,NNE,26,3.0,5.0,93,0.00,,---,0.02,VWS V14.01,2013-01-15 05:56:00,
2013-01-14 23:57:00,31.9,30.1,30.21,NW,313,2.0,3.0,93,0.00,,---,0.02,VWS V14.01,2013-01-15 05:57:00,